Data for 07/24/2009

Time Sea-Level Adjusted Pressure Absolute Pressure Temperature Relative Humidity Dew Point Precipitation   
(mb) (inHg) (mb) (inHg) (C) (F) (%) (C) (F) (mm) (in)
00:01 1020 30.12 849 25.07 17.4 63.4 53 7.9 46.2 17.77 0.7
00:02 1020 30.12 849 25.07 17.6 63.6 52 7.7 45.9 17.88 0.704
00:03 1020 30.12 849 25.07 17.7 63.9 52 7.8 46.1 18.05 0.711
00:04 1020 30.12 849 25.07 17.8 64 52 8 46.3 18.08 0.712
00:05 1020 30.12 849 25.07 17.8 64 54 8.4 47.2 18.1 0.713
00:06 1020 30.12 849 25.07 17.7 63.8 55 8.5 47.4 18.05 0.711
00:07 1020 30.12 849 25.07 17.5 63.5 55 8.3 47 17.85 0.703
00:08 1020 30.12 850 25.1 17.4 63.3 55 8.4 47.2 17.77 0.7
00:09 1020 30.12 850 25.1 17.3 63.1 59 9.2 48.6 17.69 0.696
00:10 1020 30.12 849 25.07 17.1 62.7 60 9.4 48.8 17.51 0.689
00:11 1020 30.12 850 25.1 16.8 62.2 61 9.4 48.9 17.28 0.68
00:12 1020 30.12 850 25.1 16.6 61.8 63 9.6 49.3 17.07 0.672
00:13 1020 30.12 850 25.1 16.3 61.4 64 9.6 49.3 16.82 0.662
00:14 1020 30.12 850 25.1 16.2 61.2 64 9.4 48.9 16.65 0.656
00:15 1020 30.12 850 25.1 16.2 61.1 65 9.6 49.2 16.61 0.654
00:16 1020 30.12 849 25.07 16.2 61.2 61 8.9 48 16.61 0.654
00:17 1020 30.12 849 25.07 16.5 61.7 60 8.7 47.6 16.75 0.659
00:18 1020 30.12 849 25.07 16.7 62 60 8.9 48 16.97 0.668
00:19 1020 30.12 849 25.07 16.9 62.4 58 8.6 47.4 17.16 0.676
00:20 1020 30.12 849 25.07 17 62.6 57 8.5 47.3 17.33 0.682
00:21 1020 30.12 849 25.07 17.2 62.9 55 8.2 46.8 17.49 0.689
00:22 1020 30.12 849 25.07 17.3 63.1 57 8.8 47.8 17.61 0.693
00:23 1020 30.12 849 25.07 17.3 63.1 57 8.9 48 17.65 0.695
00:24 1020 30.12 849 25.07 17.2 63 59 9.3 48.8 17.54 0.691
00:25 1020 30.12 849 25.07 17.1 62.7 58 8.9 47.9 17.46 0.687
00:26 1020 30.12 849 25.07 17.1 62.8 57 8.6 47.4 17.45 0.687
00:27 1020 30.12 850 25.1 17.1 62.8 59 9.1 48.5 17.42 0.686
00:28 1020 30.12 850 25.1 17 62.5 60 9.1 48.4 17.37 0.684
00:29 1020 30.12 850 25.1 16.9 62.4 59 9 48.3 17.3 0.681
00:30 1020 30.12 850 25.1 16.9 62.4 59 8.9 48.1 17.27 0.68
00:31 1020 30.12 850 25.1 16.9 62.5 58 8.8 47.8 17.32 0.682
00:32 1020 30.12 850 25.1 17 62.5 58 8.8 47.9 17.35 0.683
00:33 1021 30.15 850 25.1 17.1 62.7 57 8.6 47.4 17.39 0.685
00:34 1021 30.15 850 25.1 17.2 63 57 8.7 47.6 17.54 0.691
00:35 1021 30.15 850 25.1 17.3 63.2 57 8.7 47.7 17.6 0.693
00:36 1021 30.15 850 25.1 17.4 63.2 57 8.7 47.7 17.7 0.697
00:37 1021 30.15 850 25.1 17.4 63.3 55 8.4 47.1 17.72 0.698
00:38 1021 30.15 850 25.1 17.4 63.4 54 8.2 46.7 17.75 0.699
00:39 1021 30.15 850 25.1 17.7 63.8 54 8.3 47 17.93 0.706
00:40 1021 30.15 850 25.1 17.8 64 53 8.1 46.6 18.03 0.71
00:41 1021 30.15 850 25.1 17.9 64.3 50 7.4 45.3 18.18 0.716
00:42 1021 30.15 850 25.1 18.2 64.8 48 7.1 44.7 18.39 0.724
00:43 1021 30.15 850 25.1 18.5 65.4 45 6.5 43.7 18.73 0.737
00:44 1021 30.15 850 25.1 19 66.2 45 6.8 44.3 19.19 0.756
00:45 1021 30.15 850 25.1 19.5 67 41 6 42.8 19.62 0.772
00:46 1021 30.15 850 25.1 19.9 67.9 41 6.5 43.7 20.06 0.79
00:47 1021 30.15 850 25.1 20.2 68.4 40 6.4 43.6 20.44 0.805
00:48 1021 30.15 850 25.1 20.4 68.7 39 6 42.8 20.66 0.813
00:49 1021 30.15 850 25.1 20.6 69 39 6.2 43.2 20.83 0.82
00:50 1021 30.15 850 25.1 20.7 69.3 39 6.4 43.6 20.98 0.826
00:51 1021 30.15 850 25.1 20.7 69.3 40 6.9 44.3 21 0.827
00:52 1021 30.15 850 25.1 20.5 68.8 43 7.6 45.6 20.8 0.819
00:53 1021 30.15 850 25.1 20.1 68.2 43 7.4 45.3 20.49 0.807
00:54 1021 30.15 850 25.1 19.9 67.9 45 7.7 45.9 20.27 0.798
00:55 1021 30.15 850 25.1 19.8 67.7 43 7 44.6 20.15 0.793
00:56 1021 30.15 850 25.1 20 68 42 6.8 44.2 20.25 0.797
00:57 1021 30.15 850 25.1 20.1 68.2 42 7.1 44.8 20.38 0.802
00:58 1021 30.15 850 25.1 20.1 68.2 42 6.8 44.2 20.4 0.803
00:59 1021 30.15 850 25.1 20 68 45 7.8 46 20.31 0.8
01:00 1021 30.15 850 25.1 19.9 67.9 45 7.8 46.1 20.28 0.798
01:01 1021 30.15 850 25.1 19.8 67.6 46 8 46.4 20.13 0.793
01:02 1021 30.15 850 25.1 19.5 67.1 48 8.5 47.3 19.92 0.784
01:03 1021 30.15 850 25.1 19.2 66.5 53 9.5 49.1 19.66 0.774
01:04 1021 30.15 850 25.1 18.6 65.6 56 9.8 49.7 19.2 0.756
01:05 1021 30.15 850 25.1 18.1 64.6 58 9.9 49.7 18.71 0.737
01:06 1021 30.15 850 25.1 17.7 63.9 60 10.1 50.1 18.3 0.72
01:07 1021 30.15 850 25.1 17.4 63.4 62 10.2 50.4 17.95 0.707
01:08 1021 30.15 850 25.1 17.2 62.9 62 9.8 49.7 17.66 0.695
01:09 1021 30.15 850 25.1 17 62.7 63 10 50 17.49 0.689
01:10 1021 30.15 850 25.1 16.9 62.4 63 9.9 49.8 17.35 0.683
01:11 1021 30.15 850 25.1 16.8 62.3 62 9.6 49.2 17.23 0.678
01:12 1021 30.15 850 25.1 16.9 62.3 62 9.5 49.2 17.19 0.677
01:13 1021 30.15 850 25.1 16.9 62.4 61 9.3 48.8 17.22 0.678
01:14 1021 30.15 850 25.1 16.9 62.5 61 9.4 48.9 17.3 0.681
01:15 1021 30.15 850 25.1 17 62.5 60 9.1 48.4 17.3 0.681
01:16 1021 30.15 850 25.1 17 62.6 58 8.8 47.8 17.36 0.683
01:17 1021 30.15 850 25.1 17.2 62.9 59 9.1 48.4 17.51 0.689
01:18 1021 30.15 850 25.1 17.2 62.9 59 9.1 48.4 17.56 0.691
01:19 1021 30.15 850 25.1 17.1 62.8 61 9.6 49.3 17.49 0.689
01:20 1021 30.15 850 25.1 17.1 62.8 61 9.5 49.1 17.44 0.687
01:21 1021 30.15 850 25.1 17.1 62.8 60 9.4 49 17.47 0.688
01:22 1021 30.15 850 25.1 17.1 62.8 61 9.5 49.2 17.48 0.688
01:23 1021 30.15 850 25.1 17.1 62.8 60 9.4 49 17.45 0.687
01:24 1021 30.15 850 25.1 17.2 62.9 60 9.4 48.8 17.53 0.69
01:25 1021 30.15 850 25.1 17.2 63 59 9.3 48.7 17.56 0.691
01:26 1021 30.15 850 25.1 17.3 63.1 59 9.4 49 17.63 0.694
01:27 1021 30.15 850 25.1 17.4 63.3 57 9 48.2 17.71 0.697
01:28 1021 30.15 850 25.1 17.5 63.5 60 9.7 49.4 17.83 0.702
01:29 1021 30.15 850 25.1 17.5 63.4 60 9.7 49.5 17.78 0.7
01:30 1021 30.15 850 25.1 17.4 63.3 59 9.3 48.8 17.72 0.698
01:31 1021 30.15 850 25.1 17.5 63.5 56 8.8 47.8 17.79 0.7
01:32 1021 30.15 850 25.1 17.7 63.8 58 9.4 48.8 17.99 0.708
01:33 1021 30.15 850 25.1 17.7 63.8 58 9.4 49 18.08 0.712
01:34 1021 30.15 850 25.1 17.7 63.9 59 9.8 49.7 18.06 0.711
01:35 1021 30.15 850 25.1 17.7 63.8 59 9.6 49.2 18.02 0.709
01:36 1021 30.15 850 25.1 17.8 64 56 9 48.1 18.08 0.712
01:37 1021 30.15 850 25.1 18 64.5 54 8.7 47.6 18.33 0.722
01:38 1021 30.15 850 25.1 18.2 64.8 55 9.2 48.6 18.5 0.728
01:39 1021 30.15 850 25.1 18.2 64.7 55 9.2 48.6 18.57 0.731
01:40 1021 30.15 850 25.1 18.2 64.7 56 9.2 48.6 18.56 0.731
01:41 1021 30.15 850 25.1 18.1 64.6 57 9.4 49 18.47 0.727
01:42 1021 30.15 850 25.1 18 64.4 57 9.5 49 18.4 0.724
01:43 1021 30.15 850 25.1 18 64.3 58 9.6 49.2 18.3 0.72
01:44 1021 30.15 850 25.1 17.8 64.1 59 9.8 49.7 18.21 0.717
01:45 1021 30.15 850 25.1 17.7 63.8 60 9.8 49.7 18.09 0.712
01:46 1021 30.15 850 25.1 17.6 63.6 60 9.9 49.8 17.97 0.707
01:47 1021 30.15 850 25.1 17.4 63.4 60 9.7 49.4 17.83 0.702
01:48 1021 30.15 850 25.1 17.4 63.2 61 9.8 49.7 17.76 0.699
01:49 1021 30.15 850 25.1 17.3 63.1 61 9.7 49.4 17.7 0.697
01:50 1021 30.15 850 25.1 17.3 63.1 59 9.3 48.8 17.7 0.697
01:51 1021 30.15 850 25.1 17.4 63.3 60 9.5 49.2 17.75 0.699
01:52 1021 30.15 850 25.1 17.5 63.5 58 9.3 48.8 17.8 0.701
01:53 1021 30.15 850 25.1 17.6 63.7 57 9.2 48.6 17.88 0.704
01:54 1021 30.15 850 25.1 17.8 64 60 10 50 18.06 0.711
01:55 1021 30.15 850 25.1 17.7 63.8 61 10.3 50.5 18.01 0.709
01:56 1021 30.15 850 25.1 17.4 63.3 61 9.9 49.9 17.8 0.701
01:57 1021 30.15 850 25.1 17.3 63.1 61 9.8 49.6 17.67 0.696
01:58 1021 30.15 850 25.1 17.3 63.1 61 9.7 49.5 17.65 0.695
01:59 1021 30.15 850 25.1 17.3 63.1 62 9.9 49.8 17.61 0.693
02:00 1021 30.15 850 25.1 17.1 62.9 61 9.7 49.5 17.52 0.69
02:01 1021 30.15 850 25.1 17.1 62.8 61 9.7 49.5 17.49 0.689
02:02 1021 30.15 850 25.1 17.1 62.8 62 9.8 49.7 17.5 0.689
02:03 1021 30.15 850 25.1 17.1 62.7 63 10.1 50.1 17.44 0.687
02:04 1021 30.15 850 25.1 17 62.5 62 9.8 49.7 17.34 0.683
02:05 1021 30.15 850 25.1 16.9 62.4 63 10 49.9 17.28 0.68
02:06 1021 30.15 850 25.1 16.8 62.3 64 10.1 50.1 17.21 0.678
02:07 1021 30.15 850 25.1 16.7 62.1 65 10.2 50.3 17.1 0.673
02:08 1021 30.15 850 25.1 16.6 61.9 65 10.1 50.1 17.03 0.67
02:09 1021 30.15 850 25.1 16.6 61.9 64 9.9 49.8 16.99 0.669
02:10 1021 30.15 850 25.1 16.7 62 65 10 50.1 17.01 0.67
02:11 1021 30.15 850 25.1 16.6 62 64 10 50 17.03 0.67
02:12 1021 30.15 850 25.1 16.6 61.9 64 9.8 49.6 17 0.669
02:13 1021 30.15 850 25.1 16.7 62 65 10 50.1 17.01 0.67
02:14 1021 30.15 851 25.13 16.7 62 66 10.3 50.6 17 0.669
02:15 1021 30.15 850 25.1 16.6 61.8 66 10.3 50.5 16.88 0.665
02:16 1021 30.15 850 25.1 16.5 61.6 66 10.1 50.1 16.81 0.662
02:17 1021 30.15 850 25.1 16.4 61.6 64 9.7 49.4 16.81 0.662
02:18 1021 30.15 850 25.1 16.5 61.7 63 9.5 49.1 16.92 0.666
02:19 1021 30.15 850 25.1 16.7 62 62 9.4 49 17.04 0.671
02:20 1021 30.15 850 25.1 16.8 62.2 61 9.3 48.7 17.23 0.678
02:21 1021 30.15 850 25.1 16.9 62.5 60 9.2 48.5 17.37 0.684
02:22 1021 30.15 850 25.1 17.2 62.9 60 9.4 49 17.51 0.689
02:23 1021 30.15 850 25.1 17.2 63 60 9.6 49.2 17.54 0.691
02:24 1021 30.15 850 25.1 17.2 62.9 60 9.4 49 17.48 0.688
02:25 1021 30.15 850 25.1 17.2 62.9 60 9.3 48.7 17.5 0.689
02:26 1021 30.15 850 25.1 17.2 63 60 9.5 49.2 17.48 0.688
02:27 1021 30.15 851 25.13 17.2 62.9 61 9.7 49.5 17.48 0.688
02:28 1021 30.15 851 25.13 17.1 62.7 63 9.9 49.9 17.46 0.687
02:29 1021 30.15 851 25.13 17 62.6 61 9.6 49.3 17.36 0.683
02:30 1021 30.15 850 25.1 17 62.7 58 8.9 47.9 17.4 0.685
02:31 1021 30.15 850 25.1 17.3 63.1 59 9.2 48.6 17.55 0.691
02:32 1021 30.15 851 25.13 17.3 63.2 58 9.1 48.4 17.68 0.696
02:33 1021 30.15 851 25.13 17.4 63.3 59 9.4 48.8 17.68 0.696
02:34 1021 30.15 851 25.13 17.3 63.1 62 10.1 50.1 17.68 0.696
02:35 1021 30.15 851 25.13 17.1 62.8 63 10.1 50.2 17.53 0.69
02:36 1021 30.15 851 25.13 16.9 62.4 63 9.8 49.6 17.33 0.682
02:37 1021 30.15 851 25.13 16.9 62.4 63 9.9 49.8 17.24 0.679
02:38 1022 30.18 851 25.13 16.8 62.3 63 9.7 49.5 17.21 0.678
02:39 1022 30.18 851 25.13 16.8 62.3 61 9.4 48.9 17.22 0.678
02:40 1021 30.15 851 25.13 16.9 62.4 62 9.5 49.2 17.24 0.679
02:41 1022 30.18 851 25.13 16.9 62.5 61 9.5 49.1 17.28 0.68
02:42 1022 30.18 851 25.13 16.9 62.5 62 9.7 49.5 17.29 0.681
02:43 1022 30.18 851 25.13 16.9 62.4 63 9.8 49.7 17.3 0.681
02:44 1022 30.18 851 25.13 16.8 62.3 64 10 50 17.22 0.678
02:45 1022 30.18 851 25.13 16.8 62.2 64 9.9 49.9 17.2 0.677
02:46 1022 30.18 851 25.13 16.8 62.2 63 9.9 49.7 17.13 0.674
02:47 1022 30.18 851 25.13 16.7 62.1 63 9.7 49.4 17.09 0.673
02:48 1022 30.18 851 25.13 16.7 62 65 10.1 50.2 17.09 0.673
02:49 1022 30.18 851 25.13 16.7 62 66 10.4 50.6 17.04 0.671
02:50 1022 30.18 851 25.13 16.6 61.8 65 10 50.1 16.96 0.668
02:51 1022 30.18 851 25.13 16.5 61.7 65 9.9 49.8 16.85 0.663
02:52 1022 30.18 851 25.13 16.5 61.6 64 9.8 49.6 16.82 0.662
02:53 1022 30.18 851 25.13 16.5 61.6 65 9.9 49.8 16.82 0.662
02:54 1022 30.18 851 25.13 16.5 61.7 67 10.4 50.7 16.86 0.664
02:55 1022 30.18 851 25.13 16.4 61.6 68 10.6 51 16.85 0.663
02:56 1022 30.18 851 25.13 16.3 61.4 68 10.4 50.8 16.73 0.659
02:57 1022 30.18 851 25.13 16.2 61.2 68 10.3 50.6 16.65 0.656
02:58 1022 30.18 851 25.13 16.2 61.2 67 10.2 50.3 16.59 0.653
02:59 1022 30.18 851 25.13 16.3 61.4 66 10.1 50.2 16.66 0.656
03:00 1022 30.18 851 25.13 16.4 61.5 66 10 50.1 16.72 0.658
03:01 1022 30.18 851 25.13 16.5 61.7 66 10.3 50.5 16.81 0.662
03:02 1022 30.18 851 25.13 16.5 61.6 67 10.4 50.8 16.84 0.663
03:03 1022 30.18 851 25.13 16.4 61.6 68 10.6 51.1 16.84 0.663
03:04 1022 30.18 851 25.13 16.4 61.4 67 10.3 50.6 16.76 0.66
03:05 1022 30.18 851 25.13 16.4 61.4 67 10.3 50.6 16.73 0.659
03:06 1022 30.18 851 25.13 16.5 61.6 66 10.2 50.4 16.81 0.662
03:07 1022 30.18 851 25.13 16.5 61.8 66 10.2 50.3 16.83 0.663
03:08 1022 30.18 851 25.13 16.5 61.8 67 10.4 50.8 16.83 0.663
03:09 1022 30.18 851 25.13 16.5 61.7 66 10.2 50.4 16.85 0.663
03:10 1022 30.18 851 25.13 16.5 61.8 67 10.4 50.7 16.88 0.665
03:11 1022 30.18 851 25.13 16.5 61.7 68 10.7 51.2 16.85 0.663
03:12 1022 30.18 851 25.13 16.4 61.6 67 10.4 50.8 16.84 0.663
03:13 1022 30.18 851 25.13 16.4 61.6 66 10.1 50.1 16.79 0.661
03:14 1022 30.18 851 25.13 16.6 61.8 65 10 50 16.85 0.663
03:15 1022 30.18 851 25.13 16.7 62 65 10.1 50.2 16.96 0.668
03:16 1022 30.18 851 25.13 16.7 62.1 66 10.5 50.8 17.05 0.671
03:17 1022 30.18 851 25.13 16.7 62.1 67 10.5 51 17.09 0.673
03:18 1022 30.18 851 25.13 16.7 62.1 67 10.7 51.2 17.09 0.673
03:19 1022 30.18 851 25.13 16.7 62 67 10.6 51.1 17.03 0.67
03:20 1022 30.18 851 25.13 16.7 62 68 10.7 51.3 17.04 0.671
03:21 1022 30.18 851 25.13 16.7 62 70 11.2 52.2 17.04 0.671
03:22 1022 30.18 851 25.13 16.6 61.8 68 10.8 51.5 17 0.669
03:23 1022 30.18 851 25.13 16.6 61.8 69 10.9 51.6 16.94 0.667
03:24 1022 30.18 851 25.13 16.6 61.9 67 10.5 50.8 16.95 0.667
03:25 1022 30.18 851 25.13 16.7 62 67 10.5 50.9 17 0.669
03:26 1022 30.18 851 25.13 16.7 62.1 67 10.7 51.3 17.06 0.672
03:27 1022 30.18 851 25.13 16.7 62 69 11.1 51.9 17.05 0.671
03:28 1022 30.18 851 25.13 16.6 61.9 70 11.2 52.2 17 0.669
03:29 1022 30.18 851 25.13 16.5 61.7 69 10.9 51.6 16.89 0.665
03:30 1022 30.18 851 25.13 16.5 61.7 68 10.6 51.1 16.88 0.665
03:31 1022 30.18 851 25.13 16.6 61.8 67 10.6 51 16.91 0.666
03:32 1022 30.18 851 25.13 16.6 62 67 10.5 51 16.96 0.668
03:33 1022 30.18 851 25.13 16.7 62 65 10.2 50.4 17.02 0.67
03:34 1022 30.18 851 25.13 16.8 62.3 66 10.4 50.7 17.16 0.676
03:35 1022 30.18 851 25.13 16.9 62.4 65 10.4 50.8 17.2 0.677
03:36 1022 30.18 851 25.13 16.9 62.4 65 10.4 50.8 17.2 0.677
03:37 1022 30.18 851 25.13 16.9 62.3 65 10.4 50.7 17.21 0.678
03:38 1022 30.18 851 25.13 16.8 62.3 65 10.3 50.5 17.18 0.676
03:39 1022 30.18 851 25.13 16.9 62.3 65 10.4 50.7 17.2 0.677
03:40 1022 30.18 851 25.13 16.8 62.3 67 10.8 51.5 17.19 0.677
03:41 1022 30.18 851 25.13 16.7 62.1 68 10.8 51.5 17.1 0.673
03:42 1022 30.18 851 25.13 16.6 61.8 68 10.8 51.4 16.94 0.667
03:43 1022 30.18 851 25.13 16.5 61.6 69 10.9 51.6 16.83 0.663
03:44 1022 30.18 851 25.13 16.3 61.4 70 10.9 51.6 16.74 0.659
03:45 1022 30.18 851 25.13 16.3 61.3 71 11 51.7 16.65 0.656
03:46 1022 30.18 851 25.13 16.2 61.1 71 10.9 51.7 16.57 0.652
03:47 1022 30.18 851 25.13 16.1 61 71 10.9 51.7 16.49 0.649
03:48 1022 30.18 851 25.13 16 60.8 71 10.9 51.6 16.45 0.648
03:49 1022 30.18 851 25.13 16 60.8 70 10.6 51.2 16.42 0.646
03:50 1022 30.18 851 25.13 16.1 60.9 71 10.8 51.4 16.4 0.646
03:51 1022 30.18 851 25.13 16.1 60.9 70 10.7 51.3 16.44 0.647
03:52 1022 30.18 851 25.13 16.1 60.9 70 10.7 51.3 16.44 0.647
03:53 1022 30.18 851 25.13 16.1 60.9 71 10.8 51.4 16.44 0.647
03:54 1022 30.18 851 25.13 16.1 60.9 71 10.8 51.5 16.41 0.646
03:55 1022 30.18 851 25.13 16 60.9 71 10.8 51.5 16.39 0.645
03:56 1022 30.18 851 25.13 16 60.9 71 10.9 51.6 16.39 0.645
03:57 1022 30.18 851 25.13 16 60.8 72 11 51.8 16.32 0.643
03:58 1021 30.15 851 25.13 15.9 60.6 73 11 51.8 16.24 0.639
03:59 1021 30.15 851 25.13 15.8 60.4 72 10.9 51.6 16.17 0.637
04:00 1021 30.15 851 25.13 15.8 60.4 72 10.8 51.4 16.15 0.636
04:01 1021 30.15 851 25.13 15.8 60.5 71 10.6 51.1 16.16 0.636
04:02 1021 30.15 851 25.13 15.8 60.5 71 10.7 51.2 16.19 0.637
04:03 1021 30.15 851 25.13 15.9 60.6 71 10.7 51.3 16.19 0.637
04:04 1021 30.15 851 25.13 15.9 60.5 72 10.8 51.4 16.2 0.638
04:05 1021 30.15 851 25.13 15.8 60.4 72 10.7 51.3 16.13 0.635
04:06 1021 30.15 851 25.13 15.7 60.3 72 10.8 51.4 16.08 0.633
04:07 1021 30.15 851 25.13 15.7 60.2 72 10.8 51.4 16.07 0.633
04:08 1021 30.15 851 25.13 15.6 60.2 72 10.7 51.3 16.01 0.63
04:09 1021 30.15 851 25.13 15.6 60.2 72 10.6 51.1 16.03 0.631
04:10 1021 30.15 851 25.13 15.8 60.4 70 10.4 50.7 16.04 0.631
04:11 1021 30.15 851 25.13 15.9 60.6 69 10.3 50.6 16.12 0.635
04:12 1021 30.15 851 25.13 16 60.8 69 10.4 50.7 16.27 0.641
04:13 1021 30.15 851 25.13 16 60.9 68 10.3 50.5 16.32 0.643
04:14 1021 30.15 851 25.13 16.1 61 68 10.3 50.5 16.4 0.646
04:15 1021 30.15 851 25.13 16.2 61.1 68 10.4 50.7 16.46 0.648
04:16 1021 30.15 851 25.13 16.2 61.2 68 10.4 50.6 16.54 0.651
04:17 1021 30.15 851 25.13 16.2 61.2 69 10.6 51 16.57 0.652
04:18 1021 30.15 851 25.13 16.2 61.1 70 10.7 51.3 16.52 0.65
04:19 1021 30.15 851 25.13 16.1 61 71 10.8 51.5 16.45 0.648
04:20 1021 30.15 851 25.13 16 60.8 71 10.7 51.3 16.37 0.644
04:21 1021 30.15 851 25.13 16 60.8 70 10.6 51 16.35 0.644
04:22 1022 30.18 851 25.13 16.1 61 69 10.6 51 16.43 0.647
04:23 1022 30.18 851 25.13 16.2 61.1 70 10.7 51.2 16.5 0.65
04:24 1022 30.18 851 25.13 16.2 61.1 70 10.8 51.5 16.55 0.652
04:25 1022 30.18 851 25.13 16.1 61 72 11.1 51.9 16.52 0.65
04:26 1022 30.18 851 25.13 16 60.8 72 11 51.9 16.42 0.646
04:27 1022 30.18 851 25.13 15.9 60.6 73 11 51.8 16.28 0.641
04:28 1022 30.18 851 25.13 15.8 60.4 73 11 51.8 16.21 0.638
04:29 1022 30.18 851 25.13 15.8 60.4 73 11 51.8 16.17 0.637
04:30 1022 30.18 851 25.13 15.7 60.3 74 11.1 51.9 16.12 0.635
04:31 1022 30.18 851 25.13 15.7 60.3 73 11 51.8 16.09 0.633
04:32 1022 30.18 851 25.13 15.7 60.3 73 10.9 51.6 16.11 0.634
04:33 1022 30.18 851 25.13 15.7 60.3 72 10.6 51.2 16.1 0.634
04:34 1022 30.18 851 25.13 15.9 60.5 72 10.8 51.5 16.16 0.636
04:35 1022 30.18 851 25.13 15.9 60.6 71 10.7 51.3 16.24 0.639
04:36 1022 30.18 851 25.13 16 60.8 71 10.8 51.5 16.29 0.641
04:37 1022 30.18 851 25.13 16.1 60.9 71 10.9 51.6 16.45 0.648
04:38 1022 30.18 851 25.13 16.1 61.1 67 10.1 50.2 16.45 0.648
04:39 1022 30.18 851 25.13 16.4 61.5 66 10 50.1 16.61 0.654
04:40 1022 30.18 851 25.13 16.7 62 65 10.1 50.1 16.82 0.662
04:41 1022 30.18 851 25.13 16.8 62.2 64 9.9 49.8 17 0.669
04:42 1022 30.18 851 25.13 16.8 62.3 64 10.1 50.2 17.09 0.673
04:43 1022 30.18 851 25.13 16.9 62.4 66 10.6 51.1 17.15 0.675
04:44 1022 30.18 851 25.13 16.8 62.2 64 10 50 17.12 0.674
04:45 1022 30.18 851 25.13 16.8 62.3 62 9.6 49.3 17.08 0.672
04:46 1022 30.18 851 25.13 16.9 62.4 61 9.4 48.9 17.14 0.675
04:47 1022 30.18 851 25.13 17.1 62.8 60 9.4 49 17.36 0.683
04:48 1022 30.18 851 25.13 17.3 63.2 61 9.9 49.9 17.56 0.691
04:49 1022 30.18 851 25.13 17.3 63.2 62 10.1 50.1 17.62 0.694
04:50 1022 30.18 851 25.13 17.3 63.1 62 10.1 50.2 17.58 0.692
04:51 1022 30.18 851 25.13 17.2 62.9 64 10.4 50.7 17.55 0.691
04:52 1022 30.18 851 25.13 17.1 62.7 65 10.6 51 17.41 0.685
04:53 1022 30.18 851 25.13 16.9 62.4 64 10.1 50.3 17.2 0.677
04:54 1022 30.18 851 25.13 16.8 62.2 61 9.3 48.8 17.16 0.676
04:55 1022 30.18 851 25.13 17.1 62.8 58 8.8 47.9 17.37 0.684
04:56 1022 30.18 851 25.13 17.6 63.6 57 8.9 48.1 17.73 0.698
04:57 1022 30.18 851 25.13 17.8 64.1 56 9 48.1 18 0.709
04:58 1022 30.18 851 25.13 18 64.3 56 9.1 48.4 18.21 0.717
04:59 1022 30.18 851 25.13 18.1 64.5 55 9 48.1 18.34 0.722
05:00 1022 30.18 851 25.13 18.2 64.7 57 9.7 49.4 18.47 0.727
05:01 1022 30.18 851 25.13 18.1 64.6 57 9.5 49.1 18.46 0.727
05:02 1022 30.18 851 25.13 18.1 64.5 60 10.2 50.4 18.39 0.724
05:03 1022 30.18 851 25.13 17.9 64.2 61 10.4 50.8 18.18 0.716
05:04 1022 30.18 851 25.13 17.6 63.8 65 11 51.9 17.91 0.705
05:05 1022 30.18 851 25.13 17.3 63.1 67 11.3 52.3 17.56 0.691
05:06 1022 30.18 851 25.13 17 62.5 69 11.3 52.3 17.27 0.68
05:07 1022 30.18 851 25.13 16.7 62.1 70 11.2 52.2 17.02 0.67
05:08 1022 30.18 851 25.13 16.5 61.7 70 11 51.8 16.86 0.664
05:09 1022 30.18 851 25.13 16.4 61.4 68 10.6 51 16.73 0.659
05:10 1022 30.18 851 25.13 16.4 61.4 67 10.4 50.7 16.76 0.66
05:11 1022 30.18 851 25.13 16.4 61.5 68 10.5 50.9 16.79 0.661
05:12 1022 30.18 851 25.13 16.5 61.6 68 10.6 51.1 16.79 0.661
05:13 1022 30.18 851 25.13 16.4 61.5 69 10.7 51.2 16.75 0.659
05:14 1022 30.18 851 25.13 16.3 61.3 68 10.5 50.9 16.64 0.655
05:15 1022 30.18 851 25.13 16.2 61.2 69 10.6 51.1 16.57 0.652
05:16 1022 30.18 851 25.13 16.1 61 70 10.7 51.2 16.51 0.65
05:17 1022 30.18 851 25.13 16 60.8 70 10.5 51 16.41 0.646
05:18 1022 30.18 851 25.13 16 60.7 69 10.3 50.5 16.35 0.644
05:19 1022 30.18 851 25.13 16 60.8 69 10.3 50.6 16.38 0.645
05:20 1022 30.18 851 25.13 16.1 60.9 70 10.6 51.1 16.42 0.646
05:21 1022 30.18 851 25.13 16 60.8 70 10.7 51.2 16.33 0.643
05:22 1022 30.18 851 25.13 15.9 60.6 71 10.7 51.2 16.26 0.64
05:23 1022 30.18 851 25.13 15.9 60.6 71 10.6 51.1 16.27 0.641
05:24 1022 30.18 851 25.13 15.9 60.6 69 10.4 50.7 16.29 0.641
05:25 1022 30.18 851 25.13 16 60.8 69 10.4 50.8 16.37 0.644
05:26 1022 30.18 851 25.13 16.1 61 69 10.4 50.8 16.43 0.647
05:27 1022 30.18 851 25.13 16.2 61.1 67 10.1 50.2 16.52 0.65
05:28 1022 30.18 851 25.13 16.4 61.4 66 10.1 50.1 16.67 0.656
05:29 1022 30.18 851 25.13 16.5 61.8 65 10 50 16.84 0.663
05:30 1022 30.18 851 25.13 16.7 62 64 9.8 49.7 16.92 0.666
05:31 1022 30.18 851 25.13 16.8 62.2 64 10.1 50.1 17.01 0.67
05:32 1022 30.18 851 25.13 16.8 62.2 66 10.5 50.9 17.08 0.672
05:33 1022 30.18 851 25.13 16.6 62 67 10.6 51.1 16.99 0.669
05:34 1022 30.18 851 25.13 16.5 61.8 67 10.5 51 16.88 0.665
05:35 1022 30.18 851 25.13 16.5 61.7 66 10.3 50.5 16.85 0.663
05:36 1022 30.18 851 25.13 16.5 61.7 66 10.3 50.5 16.84 0.663
05:37 1022 30.18 851 25.13 16.6 61.9 65 10.1 50.1 16.94 0.667
05:38 1022 30.18 851 25.13 16.6 61.9 65 10.2 50.4 16.99 0.669
05:39 1022 30.18 851 25.13 16.6 62 66 10.3 50.5 16.97 0.668
05:40 1022 30.18 851 25.13 16.6 61.9 65 10.1 50.2 16.96 0.668
05:41 1022 30.18 851 25.13 16.7 62 64 10 50 16.99 0.669
05:42 1022 30.18 851 25.13 16.8 62.2 64 9.9 49.9 17.06 0.672
05:43 1022 30.18 851 25.13 16.7 62.1 65 10.3 50.5 17.06 0.672
05:44 1022 30.18 851 25.13 16.6 61.9 67 10.5 50.9 17 0.669
05:45 1022 30.18 851 25.13 16.5 61.6 67 10.5 50.9 16.9 0.665
05:46 1022 30.18 851 25.13 16.3 61.4 67 10.3 50.5 16.78 0.661
05:47 1022 30.18 851 25.13 16.3 61.3 67 10.3 50.5 16.69 0.657
05:48 1022 30.18 851 25.13 16.3 61.3 67 10.3 50.5 16.67 0.656
05:49 1022 30.18 851 25.13 16.3 61.3 67 10.2 50.4 16.66 0.656
05:50 1022 30.18 851 25.13 16.3 61.3 67 10.3 50.5 16.66 0.656
05:51 1022 30.18 851 25.13 16.3 61.3 66 10 50.1 16.63 0.655
05:52 1022 30.18 851 25.13 16.4 61.6 66 10.1 50.2 16.76 0.66
05:53 1022 30.18 851 25.13 16.5 61.6 67 10.3 50.6 16.88 0.665
05:54 1022 30.18 851 25.13 16.5 61.6 67 10.4 50.8 16.83 0.663
05:55 1022 30.18 851 25.13 16.4 61.4 68 10.5 50.8 16.72 0.658
05:56 1022 30.18 851 25.13 16.3 61.3 67 10.3 50.5 16.69 0.657
05:57 1022 30.18 851 25.13 16.3 61.4 67 10.2 50.3 16.69 0.657
05:58 1022 30.18 851 25.13 16.4 61.6 64 9.6 49.3 16.8 0.661
05:59 1022 30.18 851 25.13 16.6 62 63 9.6 49.3 16.98 0.669
06:00 1022 30.18 851 25.13 16.8 62.2 63 9.7 49.5 17.1 0.673
06:01 1022 30.18 851 25.13 16.9 62.4 64 10.2 50.4 17.17 0.676
06:02 1022 30.18 851 25.13 16.9 62.3 65 10.3 50.6 17.15 0.675
06:03 1022 30.18 851 25.13 16.7 62 66 10.3 50.5 17.03 0.67
06:04 1022 30.18 851 25.13 16.6 61.8 66 10.3 50.6 16.94 0.667
06:05 1022 30.18 851 25.13 16.5 61.8 64 9.8 49.7 16.89 0.665
06:06 1022 30.18 851 25.13 16.6 61.8 65 10 50 16.9 0.665
06:07 1022 30.18 851 25.13 16.6 61.9 65 10 50 17.01 0.67
06:08 1022 30.18 851 25.13 16.7 62 65 10.2 50.3 17.07 0.672
06:09 1022 30.18 851 25.13 16.7 62.1 65 10.1 50.1 17.04 0.671
06:10 1022 30.18 851 25.13 16.7 62.1 66 10.3 50.5 17.05 0.671
06:11 1022 30.18 851 25.13 16.7 62 64 9.8 49.7 17.04 0.671
06:12 1022 30.18 851 25.13 16.7 62 62 9.5 49.1 17.09 0.673
06:13 1022 30.18 851 25.13 16.8 62.3 63 9.8 49.6 17.23 0.678
06:14 1022 30.18 851 25.13 17 62.5 61 9.5 49.2 17.38 0.684
06:15 1022 30.18 851 25.13 17.1 62.7 60 9.2 48.6 17.48 0.688
06:16 1022 30.18 851 25.13 17.2 63 60 9.5 49.1 17.6 0.693
06:17 1022 30.18 851 25.13 17.3 63.2 60 9.7 49.4 17.69 0.696
06:18 1022 30.18 851 25.13 17.4 63.2 61 9.8 49.6 17.73 0.698
06:19 1022 30.18 851 25.13 17.4 63.3 59 9.5 49.1 17.76 0.699
06:20 1022 30.18 852 25.16 17.5 63.4 59 9.4 49 17.82 0.702
06:21 1022 30.18 852 25.16 17.5 63.6 58 9.2 48.6 17.92 0.706
06:22 1022 30.18 852 25.16 17.6 63.7 58 9.3 48.8 17.99 0.708
06:23 1022 30.18 852 25.16 17.7 63.8 59 9.6 49.3 18.02 0.709
06:24 1022 30.18 852 25.16 17.7 63.9 58 9.5 49.1 18.03 0.71
06:25 1023 30.21 852 25.16 17.7 63.9 56 9 48.1 18.01 0.709
06:26 1023 30.21 852 25.16 17.8 64 54 8.6 47.4 18.12 0.713
06:27 1023 30.21 852 25.16 18 64.3 54 8.7 47.7 18.23 0.718
06:28 1023 30.21 852 25.16 18 64.5 56 9.2 48.5 18.32 0.721
06:29 1023 30.21 852 25.16 18.1 64.6 56 9.3 48.8 18.35 0.722
06:30 1023 30.21 852 25.16 18.1 64.5 57 9.5 49.1 18.32 0.721
06:31 1023 30.21 852 25.16 18 64.4 57 9.5 49 18.28 0.72
06:32 1023 30.21 852 25.16 18 64.3 57 9.4 48.9 18.26 0.719
06:33 1023 30.21 852 25.16 17.9 64.3 57 9.5 49.2 18.25 0.719
06:34 1023 30.21 852 25.16 17.9 64.2 59 9.9 49.8 18.23 0.718
06:35 1023 30.21 852 25.16 17.8 64.1 59 9.7 49.5 18.15 0.715
06:36 1023 30.21 852 25.16 17.8 64 60 10 50.1 18.14 0.714
06:37 1023 30.21 852 25.16 17.6 63.7 62 10.2 50.4 18.01 0.709
06:38 1023 30.21 852 25.16 17.5 63.5 61 10 50 17.91 0.705
06:39 1023 30.21 852 25.16 17.5 63.4 60 9.7 49.4 17.87 0.704
06:40 1023 30.21 852 25.16 17.5 63.6 59 9.4 49 17.9 0.705
06:41 1023 30.21 852 25.16 17.6 63.7 59 9.5 49.1 18.04 0.71
06:42 1023 30.21 852 25.16 17.7 63.8 58 9.5 49 18.11 0.713
06:43 1023 30.21 852 25.16 17.8 64 58 9.5 49.1 18.13 0.714
06:44 1023 30.21 852 25.16 17.8 64.1 57 9.3 48.8 18.19 0.716
06:45 1023 30.21 852 25.16 17.9 64.2 58 9.5 49.1 18.26 0.719
06:46 1023 30.21 852 25.16 17.9 64.2 57 9.3 48.8 18.31 0.721
06:47 1023 30.21 852 25.16 18 64.4 58 9.6 49.3 18.32 0.721
06:48 1023 30.21 852 25.16 18 64.4 65 11.4 52.5 18.34 0.722
06:49 1023 30.21 853 25.19 17.6 63.7 67 11.5 52.7 18.13 0.714
06:50 1023 30.21 853 25.19 17.2 62.9 68 11.3 52.4 17.71 0.697
06:51 1023 30.21 853 25.19 16.9 62.5 69 11.3 52.3 17.42 0.686
06:52 1023 30.21 853 25.19 16.7 62.1 69 11.1 52.1 17.21 0.678
06:53 1023 30.21 852 25.16 16.6 61.8 71 11.3 52.3 17.07 0.672
06:54 1023 30.21 852 25.16 16.5 61.7 70 11.1 52 16.92 0.666
06:55 1023 30.21 852 25.16 16.4 61.5 67 10.4 50.8 16.83 0.663
06:56 1023 30.21 852 25.16 16.5 61.8 69 11 51.8 16.94 0.667
06:57 1023 30.21 852 25.16 16.6 61.9 69 11 51.8 16.97 0.668
06:58 1023 30.21 852 25.16 16.6 61.9 68 10.8 51.4 16.97 0.668
06:59 1023 30.21 852 25.16 16.6 61.9 69 11.1 51.9 17.02 0.67
07:00 1023 30.21 852 25.16 16.7 62.1 68 10.7 51.3 17.07 0.672
07:01 1023 30.21 852 25.16 16.7 62.1 67 10.6 51.1 17.15 0.675
07:02 1023 30.21 852 25.16 16.8 62.3 65 10.2 50.4 17.2 0.677
07:03 1023 30.21 852 25.16 17 62.6 64 10.1 50.2 17.3 0.681
07:04 1023 30.21 852 25.16 17.2 62.9 61 9.6 49.2 17.44 0.687
07:05 1023 30.21 852 25.16 17.4 63.4 58 9.1 48.5 17.65 0.695
07:06 1023 30.21 852 25.16 17.6 63.7 61 10.1 50.1 17.85 0.703
07:07 1023 30.21 852 25.16 17.6 63.6 63 10.6 51 17.82 0.702
07:08 1023 30.21 852 25.16 17.3 63.2 62 10 50 17.65 0.695
07:09 1023 30.21 852 25.16 17.4 63.2 61 9.7 49.5 17.65 0.695
07:10 1023 30.21 852 25.16 17.5 63.4 61 10 50 17.75 0.699
07:11 1022 30.18 852 25.16 17.5 63.4 62 10.2 50.4 17.75 0.699
07:12 1022 30.18 852 25.16 17.3 63.2 60 9.5 49.1 17.65 0.695
07:13 1022 30.18 851 25.13 17.5 63.5 62 10.3 50.6 17.83 0.702
07:14 1022 30.18 851 25.13 17.4 63.3 60 9.8 49.6 17.78 0.7
07:15 1022 30.18 851 25.13 17.5 63.5 59 9.6 49.3 17.86 0.703
07:16 1022 30.18 851 25.13 17.7 63.9 57 9.3 48.8 18.09 0.712
07:17 1021 30.15 851 25.13 18.1 64.6 52 8.1 46.7 18.48 0.728
07:18 1021 30.15 850 25.1 18.6 65.5 53 9 48.2 18.91 0.744
07:19 1021 30.15 850 25.1 18.8 65.9 52 8.9 48 19.13 0.753
07:20 1021 30.15 850 25.1 18.8 65.9 51 8.5 47.3 19.21 0.756
07:21 1021 30.15 851 25.13 18.9 65.9 55 9.6 49.4 19.23 0.757
07:22 1021 30.15 851 25.13 18.6 65.5 56 9.9 49.9 18.98 0.747
07:23 1022 30.18 851 25.13 18.3 65 57 9.8 49.6 18.69 0.736
07:24 1022 30.18 851 25.13 18.3 64.9 55 9.2 48.5 18.6 0.732
07:25 1022 30.18 851 25.13 18.4 65.1 56 9.7 49.4 18.72 0.737
07:26 1022 30.18 851 25.13 18.3 65 60 10.4 50.8 18.62 0.733
07:27 1022 30.18 851 25.13 18 64.5 60 10.4 50.7 18.38 0.724
07:28 1022 30.18 851 25.13 17.8 64 62 10.6 51 18.17 0.715
07:29 1022 30.18 851 25.13 17.6 63.7 62 10.3 50.5 17.97 0.707
07:30 1022 30.18 851 25.13 17.6 63.7 62 10.2 50.4 17.98 0.708
07:31 1022 30.18 851 25.13 17.6 63.7 61 10.1 50.2 18.01 0.709
07:32 1022 30.18 851 25.13 17.7 63.8 61 10.1 50.1 18.03 0.71
07:33 1022 30.18 851 25.13 17.6 63.7 61 10.2 50.4 17.98 0.708
07:34 1022 30.18 851 25.13 17.6 63.6 63 10.6 51.1 17.91 0.705
07:35 1022 30.18 851 25.13 17.4 63.3 64 10.6 51 17.74 0.698
07:36 1022 30.18 851 25.13 17.3 63.1 64 10.4 50.8 17.69 0.696
07:37 1022 30.18 851 25.13 17.3 63.1 64 10.5 50.9 17.64 0.694
07:38 1022 30.18 851 25.13 17.3 63.1 61 9.7 49.5 17.64 0.694
07:39 1022 30.18 851 25.13 17.5 63.5 60 9.8 49.7 17.82 0.702
07:40 1022 30.18 851 25.13 17.7 63.8 60 9.8 49.7 17.98 0.708
07:41 1022 30.18 851 25.13 17.8 64.1 58 9.6 49.2 18.13 0.714
07:42 1022 30.18 851 25.13 17.9 64.3 59 9.8 49.7 18.31 0.721
07:43 1022 30.18 851 25.13 18 64.5 59 10.1 50.2 18.33 0.722
07:44 1022 30.18 851 25.13 18 64.4 61 10.4 50.7 18.35 0.722
07:45 1022 30.18 851 25.13 17.9 64.3 59 10 49.9 18.28 0.72
07:46 1022 30.18 851 25.13 18 64.3 56 9.3 48.7 18.36 0.723
07:47 1022 30.18 851 25.13 18.2 64.8 57 9.8 49.6 18.56 0.731
07:48 1022 30.18 851 25.13 18.3 65 56 9.6 49.2 18.69 0.736
07:49 1022 30.18 851 25.13 18.4 65.2 58 10 50 18.71 0.737
07:50 1022 30.18 851 25.13 18.4 65 58 10.1 50.2 18.71 0.737
07:51 1022 30.18 851 25.13 18.3 65 58 9.9 49.8 18.68 0.735
07:52 1022 30.18 851 25.13 18.3 64.9 59 10.2 50.3 18.67 0.735
07:53 1022 30.18 851 25.13 18.3 64.9 57 9.9 49.7 18.67 0.735
07:54 1022 30.18 851 25.13 18.4 65.1 58 10 50 18.75 0.738
07:55 1022 30.18 851 25.13 18.5 65.2 57 9.8 49.6 18.82 0.741
07:56 1022 30.18 851 25.13 18.5 65.3 56 9.8 49.6 18.84 0.742
07:57 1022 30.18 851 25.13 18.5 65.3 56 9.7 49.5 18.9 0.744
07:58 1022 30.18 851 25.13 18.6 65.4 57 10.1 50.1 18.89 0.744
07:59 1022 30.18 851 25.13 18.5 65.2 59 10.5 50.9 18.88 0.743
08:00 1022 30.18 851 25.13 18.4 65.1 60 10.5 50.8 18.78 0.739
08:01 1022 30.18 851 25.13 18.3 64.9 60 10.4 50.7 18.69 0.736
08:02 1022 30.18 851 25.13 18.3 64.9 59 10.2 50.4 18.65 0.734
08:03 1022 30.18 851 25.13 18.2 64.8 60 10.4 50.7 18.63 0.733
08:04 1022 30.18 851 25.13 18.2 64.8 58 10 50 18.62 0.733
08:05 1022 30.18 851 25.13 18.3 64.9 58 10.1 50.1 18.71 0.737
08:06 1022 30.18 851 25.13 18.4 65 58 10.1 50.2 18.75 0.738
08:07 1022 30.18 851 25.13 18.4 65.1 60 10.5 51 18.79 0.74
08:08 1022 30.18 851 25.13 18.4 65.1 56 9.7 49.4 18.76 0.739
08:09 1022 30.18 851 25.13 18.4 65.1 57 9.9 49.8 18.77 0.739
08:10 1022 30.18 851 25.13 18.5 65.2 57 9.8 49.6 18.81 0.741
08:11 1022 30.18 851 25.13 18.4 65.2 58 10.1 50.2 18.78 0.739
08:12 1022 30.18 851 25.13 18.4 65.1 57 9.9 49.8 18.77 0.739
08:13 1022 30.18 851 25.13 18.4 65.1 57 9.8 49.6 18.77 0.739
08:14 1022 30.18 851 25.13 18.4 65.1 57 9.8 49.7 18.77 0.739
08:15 1022 30.18 851 25.13 18.4 65.2 56 9.5 49.2 18.82 0.741
08:16 1022 30.18 851 25.13 18.5 65.4 57 10.1 50.1 18.92 0.745
08:17 1022 30.18 851 25.13 18.5 65.3 59 10.5 51 18.86 0.743
08:18 1022 30.18 851 25.13 18.4 65.2 61 10.8 51.4 18.77 0.739
08:19 1022 30.18 851 25.13 18.4 65 60 10.6 51.1 18.66 0.735
08:20 1022 30.18 851 25.13 18.3 64.9 58 10.1 50.2 18.64 0.734
08:21 1022 30.18 851 25.13 18.3 65 60 10.4 50.8 18.71 0.737
08:22 1022 30.18 851 25.13 18.4 65 58 10 49.9 18.7 0.736
08:23 1022 30.18 851 25.13 18.5 65.2 55 9.5 49.1 18.86 0.743
08:24 1022 30.18 851 25.13 18.6 65.5 56 9.7 49.5 19 0.748
08:25 1022 30.18 851 25.13 18.7 65.6 55 9.4 49 19.03 0.749
08:26 1022 30.18 851 25.13 18.7 65.7 56 9.8 49.7 19.08 0.751
08:27 1022 30.18 851 25.13 18.7 65.7 55 9.5 49.1 19.1 0.752
08:28 1022 30.18 851 25.13 18.8 65.8 55 9.6 49.3 19.19 0.756
08:29 1022 30.18 851 25.13 18.9 66 55 9.8 49.6 19.24 0.757
08:30 1022 30.18 851 25.13 18.9 65.9 55 9.9 49.8 19.16 0.754
08:31 1022 30.18 851 25.13 18.7 65.7 58 10.4 50.6 19.07 0.751
08:32 1022 30.18 851 25.13 18.6 65.5 57 10.1 50.2 18.95 0.746
08:33 1022 30.18 851 25.13 18.6 65.4 58 10.4 50.7 18.91 0.744
08:34 1022 30.18 851 25.13 18.5 65.3 58 10.3 50.5 18.85 0.742
08:35 1022 30.18 851 25.13 18.5 65.2 58 10.2 50.3 18.79 0.74
08:36 1022 30.18 851 25.13 18.4 65.2 57 10 50 18.76 0.739
08:37 1022 30.18 851 25.13 18.4 65.1 57 9.9 49.9 18.75 0.738
08:38 1022 30.18 851 25.13 18.4 65.2 56 9.7 49.4 18.84 0.742
08:39 1022 30.18 851 25.13 18.7 65.6 57 10.1 50.2 19.05 0.75
08:40 1022 30.18 851 25.13 18.9 66 55 9.8 49.6 19.24 0.757
08:41 1022 30.18 851 25.13 19.1 66.4 54 9.7 49.5 19.44 0.765
08:42 1022 30.18 851 25.13 19.3 66.7 53 9.5 49.1 19.6 0.772
08:43 1022 30.18 851 25.13 19.4 67 55 10.4 50.7 19.76 0.778
08:44 1022 30.18 851 25.13 19.6 67.3 53 9.9 49.8 19.97 0.786
08:45 1022 30.18 851 25.13 19.8 67.6 53 9.9 49.9 20.14 0.793
08:46 1022 30.18 851 25.13 19.9 67.8 53 10.1 50.3 20.23 0.796
08:47 1022 30.18 851 25.13 20 68 52 10.1 50.1 20.34 0.801
08:48 1022 30.18 851 25.13 20 68.1 52 9.9 49.8 20.34 0.801
08:49 1022 30.18 851 25.13 20 68 53 10.3 50.5 20.36 0.802
08:50 1022 30.18 851 25.13 20 68.1 56 11 51.8 20.49 0.807
08:51 1022 30.18 851 25.13 20.2 68.3 55 11.1 52 20.59 0.811
08:52 1022 30.18 851 25.13 20.3 68.5 51 9.9 49.7 20.63 0.812
08:53 1022 30.18 851 25.13 20.3 68.5 53 10.5 50.9 20.61 0.811
08:54 1022 30.18 851 25.13 20.3 68.6 55 11.2 52.1 20.74 0.817
08:55 1022 30.18 851 25.13 20.5 68.8 51 10.1 50.2 20.8 0.819
08:56 1022 30.18 851 25.13 20.4 68.7 53 10.7 51.3 20.76 0.817
08:57 1022 30.18 851 25.13 20.5 68.9 52 10.5 50.9 20.84 0.82
08:58 1022 30.18 851 25.13 20.6 69 54 11.1 52.1 20.91 0.823
08:59 1022 30.18 851 25.13 20.6 69.1 50 10 50 20.97 0.826
09:00 1022 30.18 851 25.13 20.7 69.3 51 10.4 50.8 21.07 0.83
09:01 1022 30.18 851 25.13 20.9 69.5 51 10.6 51 21.2 0.835
09:02 1022 30.18 851 25.13 20.9 69.7 52 10.8 51.4 21.26 0.837
09:03 1022 30.18 851 25.13 21 69.8 51 10.6 51.1 21.25 0.837
09:04 1022 30.18 851 25.13 21 69.8 50 10.3 50.6 21.35 0.841
09:05 1022 30.18 851 25.13 21.1 69.9 51 10.6 51.2 21.35 0.841
09:06 1022 30.18 851 25.13 21.1 70 48 9.8 49.7 21.37 0.841
09:07 1022 30.18 851 25.13 21.1 69.9 49 10.2 50.4 21.42 0.843
09:08 1022 30.18 851 25.13 21.1 70.1 51 10.7 51.2 21.52 0.847
09:09 1022 30.18 851 25.13 21.3 70.4 48 10.1 50.2 21.67 0.853
09:10 1022 30.18 851 25.13 21.4 70.6 47 9.7 49.5 21.77 0.857
09:11 1022 30.18 851 25.13 21.5 70.7 46 9.6 49.3 21.8 0.858
09:12 1022 30.18 851 25.13 21.5 70.7 49 10.5 50.9 21.79 0.858
09:13 1022 30.18 851 25.13 21.5 70.8 49 10.4 50.7 21.86 0.861
09:14 1022 30.18 851 25.13 21.7 71 47 10 50 21.92 0.863
09:15 1022 30.18 851 25.13 21.7 71 47 9.9 49.9 22 0.866
09:16 1022 30.18 851 25.13 21.7 71.1 47 10 50.1 22.03 0.867
09:17 1022 30.18 851 25.13 21.7 71.1 45 9.4 49 22.1 0.87
09:18 1022 30.18 851 25.13 21.8 71.2 46 9.9 49.7 22.04 0.868
09:19 1022 30.18 851 25.13 21.8 71.2 47 10.1 50.1 22.05 0.868
09:20 1022 30.18 851 25.13 21.8 71.2 49 10.7 51.2 22.08 0.869
09:21 1022 30.18 851 25.13 21.7 71.1 48 10.3 50.6 22.09 0.87
09:22 1022 30.18 851 25.13 21.7 71 46 9.9 49.7 21.98 0.865
09:23 1022 30.18 851 25.13 21.6 70.9 48 10.4 50.8 21.93 0.863
09:24 1022 30.18 851 25.13 21.7 71 47 10.2 50.3 22.01 0.867
09:25 1022 30.18 851 25.13 21.8 71.2 47 10 50.1 22.09 0.87
09:26 1022 30.18 851 25.13 21.9 71.4 47 10.4 50.7 22.25 0.876
09:27 1022 30.18 851 25.13 22.1 71.7 48 10.7 51.3 22.39 0.881
09:28 1022 30.18 851 25.13 22.1 71.9 48 10.9 51.6 22.48 0.885
09:29 1022 30.18 851 25.13 22.3 72.1 48 11 51.9 22.65 0.892
09:30 1022 30.18 851 25.13 22.4 72.3 48 10.9 51.6 22.74 0.895
09:31 1022 30.18 851 25.13 22.5 72.5 48 11 51.8 22.83 0.899
09:32 1022 30.18 851 25.13 22.6 72.7 48 11.3 52.3 22.95 0.904
09:33 1022 30.18 851 25.13 22.7 72.8 43 9.8 49.7 23.03 0.907
09:34 1022 30.18 851 25.13 22.6 72.6 44 10 50 22.8 0.898
09:35 1022 30.18 851 25.13 22.3 72.2 45 9.9 49.8 22.61 0.89
09:36 1022 30.18 851 25.13 22.2 72 46 10.3 50.5 22.48 0.885
09:37 1022 30.18 851 25.13 22 71.7 46 10.1 50.2 22.33 0.879
09:38 1022 30.18 851 25.13 21.9 71.4 46 10 50 22.21 0.874
09:39 1022 30.18 851 25.13 21.8 71.3 46 9.8 49.7 22.11 0.87
09:40 1022 30.18 851 25.13 21.7 71.1 46 9.8 49.7 22 0.866
09:41 1022 30.18 851 25.13 21.7 71 47 10.2 50.3 21.96 0.865
09:42 1022 30.18 851 25.13 21.6 70.8 49 10.6 51.1 21.89 0.862
09:43 1022 30.18 851 25.13 21.5 70.7 49 10.4 50.7 21.82 0.859
09:44 1022 30.18 851 25.13 21.5 70.7 50 10.7 51.3 21.84 0.86
09:45 1022 30.18 851 25.13 21.4 70.6 47 9.9 49.8 21.78 0.857
09:46 1022 30.18 851 25.13 21.5 70.6 49 10.3 50.6 21.78 0.857
09:47 1022 30.18 851 25.13 21.5 70.8 46 9.7 49.4 21.82 0.859
09:48 1022 30.18 851 25.13 21.6 70.8 47 10 49.9 21.92 0.863
09:49 1022 30.18 851 25.13 21.6 70.9 47 10.1 50.1 21.96 0.865
09:50 1022 30.18 851 25.13 21.8 71.2 49 10.8 51.5 22.11 0.87
09:51 1022 30.18 851 25.13 22 71.6 47 10.3 50.5 22.37 0.881
09:52 1022 30.18 851 25.13 22.2 71.9 46 10.3 50.5 22.45 0.884
09:53 1022 30.18 851 25.13 22.3 72.1 47 10.6 51.1 22.62 0.891
09:54 1022 30.18 851 25.13 22.5 72.5 46 10.3 50.6 22.81 0.898
09:55 1022 30.18 851 25.13 22.6 72.6 44 10 49.9 22.83 0.899
09:56 1022 30.18 851 25.13 22.6 72.6 44 9.9 49.8 22.9 0.902
09:57 1022 30.18 851 25.13 22.7 72.8 45 10.4 50.7 22.96 0.904
09:58 1022 30.18 851 25.13 22.8 73 44 10.1 50.1 23.08 0.909
09:59 1022 30.18 851 25.13 22.9 73.2 43 10 49.9 23.16 0.912
10:00 1022 30.18 851 25.13 23 73.3 45 10.6 51.1 23.23 0.915
10:01 1022 30.18 851 25.13 23 73.4 46 10.8 51.5 23.33 0.919
10:02 1022 30.18 851 25.13 23.1 73.5 43 10.1 50.1 23.38 0.92
10:03 1022 30.18 851 25.13 23.1 73.5 43 10 50.1 23.35 0.919
10:04 1022 30.18 851 25.13 23.1 73.5 42 9.5 49 23.34 0.919
10:05 1022 30.18 851 25.13 23 73.5 45 10.6 51.2 23.27 0.916
10:06 1022 30.18 851 25.13 23.1 73.5 43 10 50 23.42 0.922
10:07 1022 30.18 851 25.13 23.1 73.7 42 9.6 49.3 23.4 0.921
10:08 1022 30.18 851 25.13 23.2 73.7 43 10.2 50.3 23.51 0.926
10:09 1022 30.18 851 25.13 23.3 73.9 42 9.8 49.7 23.6 0.929
10:10 1022 30.18 851 25.13 23.3 74 42 9.9 49.8 23.62 0.93
10:11 1022 30.18 851 25.13 23.4 74.1 42 9.9 49.9 23.65 0.931
10:12 1022 30.18 851 25.13 23.4 74 44 10.5 50.8 23.69 0.933
10:13 1022 30.18 851 25.13 23.5 74.2 42 10 50 23.8 0.937
10:14 1022 30.18 851 25.13 23.6 74.5 43 10.5 50.9 23.89 0.941
10:15 1022 30.18 851 25.13 23.6 74.6 41 9.9 49.9 23.92 0.942
10:16 1022 30.18 851 25.13 23.6 74.6 45 11.3 52.4 23.93 0.942
10:17 1022 30.18 851 25.13 23.7 74.6 43 10.5 50.9 24.02 0.946
10:18 1022 30.18 851 25.13 23.8 74.9 41 10.1 50.2 24.06 0.947
10:19 1022 30.18 851 25.13 23.8 74.9 45 11.4 52.5 24.12 0.95
10:20 1022 30.18 851 25.13 23.9 75.1 42 10.3 50.5 24.24 0.954
10:21 1022 30.18 851 25.13 24 75.3 43 10.8 51.4 24.36 0.959
10:22 1022 30.18 851 25.13 24.1 75.3 42 10.4 50.8 24.41 0.961
10:23 1022 30.18 851 25.13 24.1 75.5 41 10.2 50.3 24.45 0.963
10:24 1022 30.18 851 25.13 24.1 75.4 40 9.9 49.8 24.44 0.962
10:25 1022 30.18 851 25.13 24.1 75.4 39 9.4 48.9 24.38 0.96
10:26 1022 30.18 851 25.13 24.1 75.3 39 9.6 49.3 24.39 0.96
10:27 1022 30.18 851 25.13 24.2 75.6 42 10.7 51.2 24.52 0.965
10:28 1021 30.15 851 25.13 24.3 75.8 39 9.8 49.6 24.63 0.97
10:29 1021 30.15 851 25.13 24.4 75.9 39 9.7 49.4 24.65 0.97
10:30 1021 30.15 851 25.13 24.3 75.8 40 10 49.9 24.55 0.967
10:31 1021 30.15 851 25.13 24.3 75.7 40 10.2 50.4 24.57 0.967
10:32 1021 30.15 851 25.13 24.3 75.8 39 9.8 49.7 24.67 0.971
10:33 1021 30.15 851 25.13 24.5 76 40 10.1 50.3 24.79 0.976
10:34 1021 30.15 851 25.13 24.6 76.2 40 10.4 50.7 24.93 0.981
10:35 1021 30.15 851 25.13 24.7 76.5 41 10.9 51.6 25.05 0.986
10:36 1021 30.15 851 25.13 24.8 76.7 38 9.8 49.6 25.1 0.988
10:37 1021 30.15 851 25.13 24.8 76.6 41 10.7 51.3 25.07 0.987
10:38 1021 30.15 851 25.13 24.9 76.8 37 9.6 49.3 25.23 0.993
10:39 1021 30.15 851 25.13 24.9 76.8 37 9.4 49 25.18 0.991
10:40 1021 30.15 851 25.13 24.9 76.9 39 10.1 50.1 25.26 0.994
10:41 1021 30.15 851 25.13 25.1 77.1 37 9.5 49.2 25.41 1
10:42 1021 30.15 851 25.13 25.2 77.3 37 9.6 49.4 25.42 1.001
10:43 1021 30.15 851 25.13 25.2 77.3 38 10.1 50.1 25.47 1.003
10:44 1021 30.15 851 25.13 25.3 77.5 37 9.7 49.5 25.56 1.006
10:45 1021 30.15 851 25.13 25.3 77.6 36 9.6 49.2 25.58 1.007
10:46 1021 30.15 850 25.1 25.4 77.6 38 10.4 50.8 25.59 1.007
10:47 1021 30.15 850 25.1 25.4 77.7 39 10.5 51 25.65 1.01
10:48 1021 30.15 850 25.1 25.4 77.6 39 10.4 50.8 25.63 1.009
10:49 1021 30.15 850 25.1 25.3 77.6 38 10.1 50.1 25.56 1.006
10:50 1021 30.15 850 25.1 25.3 77.6 37 9.7 49.5 25.61 1.008
10:51 1021 30.15 850 25.1 25.4 77.7 37 9.7 49.5 25.66 1.01
10:52 1021 30.15 850 25.1 25.5 77.9 37 9.9 49.9 25.77 1.015
10:53 1021 30.15 850 25.1 25.6 78.1 36 9.5 49.2 25.9 1.02
10:54 1021 30.15 850 25.1 25.7 78.2 37 10 50 25.93 1.021
10:55 1021 30.15 850 25.1 25.7 78.3 40 11.4 52.4 25.99 1.023
10:56 1021 30.15 850 25.1 25.9 78.5 38 10.6 51.1 26.19 1.031
10:57 1021 30.15 850 25.1 26 78.7 39 11.3 52.4 26.22 1.032
10:58 1021 30.15 850 25.1 26 78.7 35 9.8 49.6 26.24 1.033
10:59 1021 30.15 850 25.1 26 78.7 36 9.9 49.8 26.17 1.03
11:00 1021 30.15 850 25.1 25.9 78.6 35 9.4 48.8 26.09 1.027
11:01 1021 30.15 850 25.1 25.8 78.5 35 9.4 49 26.1 1.028
11:02 1021 30.15 850 25.1 25.8 78.5 35 9.4 48.9 26.04 1.025
11:03 1021 30.15 850 25.1 25.8 78.4 37 10.2 50.3 26.02 1.024
11:04 1021 30.15 850 25.1 25.8 78.4 37 10.1 50.1 26.09 1.027
11:05 1021 30.15 850 25.1 25.8 78.5 38 10.7 51.3 26.1 1.028
11:06 1021 30.15 850 25.1 25.9 78.5 35 9.4 49 26.19 1.031
11:07 1021 30.15 850 25.1 26 78.7 37 10.4 50.7 26.24 1.033
11:08 1021 30.15 850 25.1 26 78.8 36 10 49.9 26.33 1.037
11:09 1021 30.15 850 25.1 26.1 79 35 9.6 49.3 26.33 1.037
11:10 1021 30.15 850 25.1 26.1 78.9 33 8.9 48.1 26.31 1.036
11:11 1021 30.15 850 25.1 26 78.8 36 10 50 26.3 1.035
11:12 1021 30.15 850 25.1 26 78.9 36 10.1 50.3 26.32 1.036
11:13 1021 30.15 850 25.1 26.2 79.1 37 10.7 51.2 26.45 1.041
11:14 1021 30.15 850 25.1 26.3 79.3 36 10.1 50.2 26.54 1.045
11:15 1021 30.15 850 25.1 26.4 79.4 35 9.9 49.9 26.61 1.048
11:16 1021 30.15 850 25.1 26.4 79.5 35 10 50.1 26.61 1.048
11:17 1021 30.15 850 25.1 26.4 79.6 36 10.5 50.8 26.63 1.048
11:18 1021 30.15 850 25.1 26.5 79.8 34 9.4 49 26.79 1.055
11:19 1021 30.15 850 25.1 26.5 79.8 33 9.4 48.9 26.73 1.052
11:20 1021 30.15 850 25.1 26.4 79.5 34 9.5 49.1 26.61 1.048
11:21 1021 30.15 850 25.1 26.3 79.4 34 9.3 48.7 26.55 1.045
11:22 1021 30.15 850 25.1 26.3 79.4 36 10.4 50.6 26.57 1.046
11:23 1021 30.15 850 25.1 26.4 79.5 32 8.6 47.4 26.7 1.051
11:24 1021 30.15 850 25.1 26.5 79.6 34 9.4 48.9 26.72 1.052
11:25 1021 30.15 850 25.1 26.6 79.8 33 9.3 48.7 26.84 1.057
11:26 1021 30.15 850 25.1 26.6 79.9 34 9.6 49.2 26.87 1.058
11:27 1021 30.15 850 25.1 26.7 80 36 10.8 51.4 26.88 1.058
11:28 1021 30.15 850 25.1 26.7 80.1 32 8.8 47.9 26.98 1.062
11:29 1021 30.15 850 25.1 26.7 80 35 10.3 50.5 26.92 1.06
11:30 1021 30.15 850 25.1 26.8 80.2 33 9.5 49.1 27.09 1.067
11:31 1021 30.15 850 25.1 26.9 80.4 31 8.6 47.5 27.15 1.069
11:32 1021 30.15 850 25.1 26.9 80.3 34 9.7 49.5 27.07 1.066
11:33 1021 30.15 850 25.1 26.8 80.2 32 9 48.3 27.07 1.066
11:34 1021 30.15 850 25.1 26.8 80.3 33 9.3 48.8 27.12 1.068
11:35 1021 30.15 850 25.1 26.9 80.4 36 10.8 51.4 27.16 1.069
11:36 1021 30.15 850 25.1 27 80.6 33 9.5 49.2 27.32 1.076
11:37 1021 30.15 850 25.1 27.1 80.8 30 8.4 47.1 27.33 1.076
11:38 1021 30.15 850 25.1 27.1 80.7 33 9.5 49.1 27.27 1.074
11:39 1021 30.15 850 25.1 27.1 80.8 35 10.5 50.9 27.4 1.079
11:40 1021 30.15 850 25.1 27.2 81 31 9.1 48.3 27.52 1.083
11:41 1021 30.15 850 25.1 27.3 81.1 32 9.6 49.2 27.55 1.085
11:42 1021 30.15 850 25.1 27.4 81.2 30 8.6 47.6 27.61 1.087
11:43 1021 30.15 850 25.1 27.3 81.2 31 8.9 48 27.57 1.085
11:44 1021 30.15 850 25.1 27.4 81.3 30 8.8 47.8 27.66 1.089
11:45 1021 30.15 850 25.1 27.4 81.2 31 9.2 48.5 27.59 1.086
11:46 1021 30.15 850 25.1 27.4 81.3 32 9.6 49.2 27.63 1.088
11:47 1021 30.15 850 25.1 27.4 81.3 30 8.7 47.7 27.65 1.089
11:48 1021 30.15 850 25.1 27.4 81.3 31 9 48.2 27.61 1.087
11:49 1021 30.15 850 25.1 27.4 81.3 30 8.7 47.6 27.65 1.089
11:50 1021 30.15 850 25.1 27.5 81.5 33 10 50 27.79 1.094
11:51 1021 30.15 850 25.1 27.6 81.6 30 8.8 47.8 27.83 1.096
11:52 1021 30.15 850 25.1 27.5 81.5 31 9.3 48.8 27.72 1.091
11:53 1021 30.15 850 25.1 27.4 81.4 32 9.4 48.9 27.73 1.092
11:54 1021 30.15 850 25.1 27.6 81.7 32 9.7 49.4 27.95 1.1
11:55 1021 30.15 850 25.1 27.8 82 30 9 48.1 28.02 1.103
11:56 1021 30.15 850 25.1 27.7 81.9 30 8.7 47.7 27.97 1.101
11:57 1021 30.15 850 25.1 27.6 81.7 30 8.9 47.9 27.93 1.1
11:58 1021 30.15 850 25.1 27.6 81.6 31 9.1 48.4 27.81 1.095
11:59 1021 30.15 850 25.1 27.6 81.7 30 8.8 47.9 27.91 1.099
12:00 1021 30.15 850 25.1 27.7 81.8 29 8.6 47.4 27.98 1.102
12:01 1021 30.15 850 25.1 27.6 81.7 31 9.2 48.5 27.87 1.097
12:02 1021 30.15 850 25.1 27.7 81.8 29 8.3 47 27.91 1.099
12:03 1021 30.15 850 25.1 27.6 81.7 30 8.9 47.9 27.83 1.096
12:04 1021 30.15 850 25.1 27.5 81.6 31 9.4 48.8 27.81 1.095
12:05 1021 30.15 850 25.1 27.6 81.7 31 9.5 49 27.97 1.101
12:06 1021 30.15 850 25.1 27.8 82.1 34 10.7 51.3 28.18 1.109
12:07 1021 30.15 850 25.1 28 82.4 29 8.5 47.3 28.35 1.116
12:08 1021 30.15 850 25.1 28 82.5 31 9.6 49.3 28.3 1.114
12:09 1021 30.15 850 25.1 28 82.4 30 9.3 48.7 28.24 1.112
12:10 1021 30.15 850 25.1 28 82.4 30 9 48.1 28.27 1.113
12:11 1021 30.15 850 25.1 28 82.4 31 9.4 48.9 28.26 1.113
12:12 1021 30.15 850 25.1 28 82.3 31 9.5 49.1 28.29 1.114
12:13 1021 30.15 850 25.1 28 82.5 33 10.4 50.7 28.34 1.116
12:14 1021 30.15 850 25.1 28.1 82.6 31 9.6 49.3 28.42 1.119
12:15 1021 30.15 850 25.1 28.1 82.6 32 10.1 50.2 28.38 1.117
12:16 1021 30.15 850 25.1 28.1 82.5 29 8.5 47.2 28.39 1.118
12:17 1021 30.15 850 25.1 27.9 82.2 32 9.8 49.7 28.15 1.108
12:18 1021 30.15 850 25.1 27.8 82 29 8.3 47 28.08 1.106
12:19 1021 30.15 850 25.1 27.7 81.8 33 10.3 50.5 27.99 1.102
12:20 1021 30.15 850 25.1 27.7 81.9 32 9.6 49.3 28.04 1.104
12:21 1021 30.15 850 25.1 27.9 82.2 33 10.2 50.4 28.2 1.11
12:22 1021 30.15 850 25.1 28 82.3 32 10 50.1 28.27 1.113
12:23 1021 30.15 850 25.1 28.1 82.5 29 8.4 47.2 28.42 1.119
12:24 1021 30.15 850 25.1 28.1 82.6 32 10 50 28.34 1.116
12:25 1021 30.15 850 25.1 28.1 82.6 31 9.7 49.4 28.42 1.119
12:26 1021 30.15 850 25.1 28.2 82.8 30 9.3 48.8 28.54 1.124
12:27 1021 30.15 850 25.1 28.3 82.9 30 9.3 48.7 28.62 1.127
12:28 1021 30.15 850 25.1 28.4 83 29 8.8 47.8 28.66 1.128
12:29 1021 30.15 850 25.1 28.4 83.1 31 10.1 50.2 28.67 1.129
12:30 1021 30.15 850 25.1 28.4 83.2 30 9.4 48.8 28.66 1.128
12:31 1021 30.15 850 25.1 28.3 83 31 9.9 49.9 28.59 1.126
12:32 1021 30.15 850 25.1 28.3 83 31 9.9 49.8 28.63 1.127
12:33 1021 30.15 850 25.1 28.4 83.1 30 9.5 49 28.69 1.13
12:34 1021 30.15 850 25.1 28.5 83.3 30 9.4 48.8 28.86 1.136
12:35 1021 30.15 850 25.1 28.6 83.4 29 9.3 48.8 28.83 1.135
12:36 1021 30.15 850 25.1 28.6 83.5 32 10.5 50.9 28.94 1.139
12:37 1021 30.15 850 25.1 28.9 84 30 10.1 50.1 29.27 1.152
12:38 1021 30.15 850 25.1 29 84.3 28 8.9 48 29.31 1.154
12:39 1021 30.15 850 25.1 28.9 84.1 28 8.9 48 29.12 1.146
12:40 1021 30.15 850 25.1 28.9 84 29 9.2 48.5 29.19 1.149
12:41 1021 30.15 850 25.1 28.8 83.9 32 11 51.7 29.15 1.148
12:42 1021 30.15 850 25.1 29 84.2 31 10.4 50.7 29.32 1.154
12:43 1021 30.15 850 25.1 29 84.2 32 11.1 51.9 29.35 1.156
12:44 1021 30.15 850 25.1 29.1 84.4 31 10.4 50.8 29.43 1.159
12:45 1021 30.15 850 25.1 29.3 84.7 30 10 50 29.6 1.165
12:46 1021 30.15 850 25.1 29.2 84.6 30 10.3 50.6 29.45 1.159
12:47 1021 30.15 850 25.1 29.1 84.4 29 9.4 48.9 29.35 1.156
12:48 1021 30.15 850 25.1 28.8 83.9 31 10.4 50.8 28.99 1.141
12:49 1021 30.15 850 25.1 28.5 83.3 29 9.2 48.6 28.66 1.128
12:50 1021 30.15 850 25.1 28.3 82.9 29 8.8 47.9 28.51 1.122
12:51 1021 30.15 850 25.1 28.3 82.9 30 9.3 48.8 28.53 1.123
12:52 1020 30.12 850 25.1 28.3 83 29 8.9 48 28.64 1.128
12:53 1020 30.12 850 25.1 28.4 83.2 30 9.5 49.1 28.78 1.133
12:54 1020 30.12 850 25.1 28.6 83.6 30 9.8 49.7 28.97 1.141
12:55 1020 30.12 850 25.1 28.8 83.8 27 8 46.5 29 1.142
12:56 1020 30.12 850 25.1 28.6 83.6 32 10.5 51 28.9 1.138
12:57 1020 30.12 850 25.1 28.7 83.6 28 8.5 47.3 28.97 1.141
12:58 1020 30.12 850 25.1 28.6 83.5 29 9.1 48.4 28.91 1.138
12:59 1020 30.12 850 25.1 28.6 83.5 30 9.9 49.8 28.89 1.137
13:00 1020 30.12 850 25.1 28.6 83.5 29 9 48.2 28.88 1.137
13:01 1020 30.12 850 25.1 28.6 83.4 28 8.7 47.7 28.85 1.136
13:02 1020 30.12 850 25.1 28.6 83.4 29 9 48.2 28.85 1.136
13:03 1020 30.12 850 25.1 28.6 83.5 28 8.6 47.4 28.87 1.137
13:04 1020 30.12 850 25.1 28.7 83.6 28 8.7 47.7 28.95 1.14
13:05 1020 30.12 850 25.1 28.8 83.8 31 10.2 50.3 29.12 1.146
13:06 1020 30.12 850 25.1 29 84.2 32 10.7 51.3 29.31 1.154
13:07 1020 30.12 850 25.1 29.1 84.4 29 9.5 49.1 29.39 1.157
13:08 1020 30.12 850 25.1 29 84.2 29 9.5 49.1 29.23 1.151
13:09 1020 30.12 850 25.1 29 84.2 27 8.3 46.9 29.29 1.153
13:10 1020 30.12 850 25.1 28.9 84 30 10.1 50.3 29.17 1.148
13:11 1020 30.12 850 25.1 29 84.2 29 9.4 48.8 29.34 1.155
13:12 1020 30.12 850 25.1 29.1 84.3 28 9.1 48.4 29.45 1.159
13:13 1020 30.12 850 25.1 29.3 84.7 29 9.8 49.6 29.53 1.163
13:14 1020 30.12 850 25.1 29.2 84.5 29 9.5 49.1 29.5 1.161
13:15 1020 30.12 850 25.1 29.1 84.4 29 9.7 49.4 29.38 1.157
13:16 1020 30.12 850 25.1 29 84.1 31 10.2 50.4 29.26 1.152
13:17 1020 30.12 850 25.1 29 84.2 29 9.3 48.8 29.36 1.156
13:18 1020 30.12 850 25.1 29.2 84.6 27 8.7 47.6 29.58 1.165
13:19 1020 30.12 850 25.1 29.2 84.6 29 9.5 49.1 29.5 1.161
13:20 1020 30.12 850 25.1 29.1 84.4 30 10.3 50.5 29.37 1.156
13:21 1020 30.12 850 25.1 29.1 84.4 27 8.4 47.1 29.44 1.159
13:22 1020 30.12 850 25.1 29 84.2 29 9.4 49 29.32 1.154
13:23 1020 30.12 850 25.1 29.1 84.4 28 9.2 48.6 29.49 1.161
13:24 1020 30.12 850 25.1 29.1 84.4 28 8.9 48 29.48 1.161
13:25 1020 30.12 850 25.1 29.1 84.4 30 9.9 49.8 29.39 1.157
13:26 1020 30.12 850 25.1 28.9 84.1 26 7.8 46.1 29.1 1.146
13:27 1020 30.12 849 25.07 28.6 83.6 28 8.6 47.4 28.88 1.137
13:28 1020 30.12 849 25.07 28.6 83.4 30 9.6 49.2 28.86 1.136
13:29 1020 30.12 849 25.07 28.7 83.7 30 9.6 49.2 29.02 1.143
13:30 1020 30.12 849 25.07 28.8 83.9 30 9.9 49.8 29.2 1.15
13:31 1020 30.12 849 25.07 28.9 84.1 30 10.1 50.2 29.24 1.151
13:32 1020 30.12 849 25.07 29 84.3 29 9.7 49.5 29.38 1.157
13:33 1020 30.12 849 25.07 29.1 84.4 26 8.2 46.7 29.4 1.157
13:34 1020 30.12 849 25.07 29.1 84.4 27 8.7 47.7 29.39 1.157
13:35 1020 30.12 849 25.07 29 84.3 28 9 48.3 29.32 1.154
13:36 1020 30.12 849 25.07 29.1 84.3 29 9.4 49 29.37 1.156
13:37 1020 30.12 849 25.07 29.1 84.3 28 9.1 48.4 29.34 1.155
13:38 1020 30.12 849 25.07 29 84.1 29 9.7 49.4 29.23 1.151
13:39 1020 30.12 849 25.07 28.8 83.9 28 8.7 47.7 29.08 1.145
13:40 1020 30.12 849 25.07 28.6 83.6 29 9.3 48.8 28.88 1.137
13:41 1020 30.12 849 25.07 28.6 83.4 28 8.8 47.9 28.87 1.137
13:42 1020 30.12 849 25.07 28.7 83.6 29 9.2 48.6 28.94 1.139
13:43 1020 30.12 849 25.07 28.9 83.9 27 8.6 47.4 29.23 1.151
13:44 1020 30.12 849 25.07 29.1 84.3 26 7.9 46.3 29.34 1.155
13:45 1020 30.12 849 25.07 29.1 84.5 30 10.1 50.2 29.45 1.159
13:46 1020 30.12 849 25.07 29.1 84.4 30 9.9 49.9 29.45 1.159
13:47 1020 30.12 849 25.07 29.2 84.6 30 10.3 50.6 29.57 1.164
13:48 1020 30.12 849 25.07 29.3 84.8 30 10.2 50.4 29.67 1.168
13:49 1020 30.12 849 25.07 29.4 84.9 26 8.3 47 29.67 1.168
13:50 1020 30.12 849 25.07 29.4 84.9 28 9.1 48.3 29.73 1.17
13:51 1020 30.12 849 25.07 29.5 85.1 27 9.1 48.3 29.83 1.174
13:52 1020 30.12 849 25.07 29.6 85.2 27 8.8 47.8 29.82 1.174
13:53 1020 30.12 849 25.07 29.5 85.2 26 8.5 47.3 29.92 1.178
13:54 1020 30.12 849 25.07 29.5 85.1 29 9.7 49.5 29.73 1.17
13:55 1020 30.12 849 25.07 29.5 85 30 10.2 50.3 29.74 1.171
13:56 1020 30.12 849 25.07 29.5 85.1 26 8.3 46.9 29.76 1.172
13:57 1020 30.12 849 25.07 29.4 84.8 26 8.1 46.5 29.59 1.165
13:58 1020 30.12 849 25.07 29.2 84.5 26 8.2 46.7 29.43 1.159
13:59 1020 30.12 849 25.07 29.1 84.5 27 8.4 47.1 29.43 1.159
14:00 1020 30.12 849 25.07 29.1 84.4 25 7.6 45.6 29.38 1.157
14:01 1020 30.12 849 25.07 29 84.2 26 7.8 46.1 29.27 1.152
14:02 1020 30.12 849 25.07 28.9 83.9 27 8.4 47.1 29.14 1.147
14:03 1020 30.12 849 25.07 28.8 83.8 27 8.4 47.1 29.09 1.145
14:04 1020 30.12 849 25.07 28.8 83.8 28 8.6 47.5 29.07 1.144
14:05 1020 30.12 849 25.07 28.7 83.6 28 8.9 48 28.96 1.14
14:06 1020 30.12 849 25.07 28.5 83.3 30 9.6 49.3 28.86 1.136
14:07 1020 30.12 849 25.07 28.4 83.1 31 10.1 50.2 28.76 1.132
14:08 1020 30.12 849 25.07 28.4 83.2 29 8.8 47.9 28.8 1.134
14:09 1020 30.12 849 25.07 28.5 83.2 30 9.5 49.1 28.78 1.133
14:10 1020 30.12 849 25.07 28.5 83.2 29 8.9 48 28.81 1.134
14:11 1020 30.12 849 25.07 28.5 83.4 32 10.5 51 28.89 1.137
14:12 1020 30.12 849 25.07 28.7 83.6 28 8.7 47.6 29.01 1.142
14:13 1020 30.12 849 25.07 28.7 83.7 28 8.8 47.9 29.15 1.148
14:14 1020 30.12 849 25.07 28.8 83.9 27 8.5 47.2 29.17 1.148
14:15 1020 30.12 849 25.07 28.9 84 28 8.8 47.8 29.27 1.152
14:16 1020 30.12 849 25.07 29 84.1 30 9.7 49.5 29.32 1.154
14:17 1020 30.12 849 25.07 29 84.3 29 9.4 48.9 29.37 1.156
14:18 1020 30.12 849 25.07 29.1 84.4 27 8.5 47.2 29.53 1.163
14:19 1020 30.12 849 25.07 29.3 84.7 29 9.7 49.5 29.66 1.168
14:20 1020 30.12 849 25.07 29.3 84.8 27 8.6 47.5 29.64 1.167
14:21 1020 30.12 849 25.07 29.2 84.5 32 10.9 51.6 29.58 1.165
14:22 1020 30.12 849 25.07 29.2 84.6 33 11.5 52.6 29.72 1.17
14:23 1020 30.12 849 25.07 29.4 85 29 10 49.9 29.9 1.177
14:24 1020 30.12 849 25.07 29.6 85.2 29 9.9 49.8 29.94 1.179
14:25 1020 30.12 849 25.07 29.6 85.2 30 10.7 51.2 29.91 1.178
14:26 1020 30.12 849 25.07 29.5 85.1 28 9.4 49 29.92 1.178
14:27 1020 30.12 849 25.07 29.4 84.9 29 10 50 29.79 1.173
14:28 1020 30.12 849 25.07 29.2 84.5 30 10.1 50.2 29.65 1.167
14:29 1020 30.12 849 25.07 29.1 84.4 30 10.3 50.5 29.57 1.164
14:30 1020 30.12 849 25.07 29.1 84.3 29 9.7 49.5 29.54 1.163
14:31 1020 30.12 849 25.07 29.1 84.3 29 9.7 49.5 29.54 1.163
14:32 1020 30.12 849 25.07 29.2 84.5 28 9.2 48.5 29.61 1.166
14:33 1020 30.12 849 25.07 29.2 84.5 30 10.1 50.3 29.55 1.163
14:34 1020 30.12 849 25.07 29.2 84.5 29 9.5 49 29.58 1.165
14:35 1020 30.12 849 25.07 29.2 84.5 31 10.4 50.7 29.58 1.165
14:36 1020 30.12 849 25.07 29.1 84.3 27 8.7 47.7 29.56 1.164
14:37 1020 30.12 849 25.07 29.2 84.5 29 9.6 49.3 29.58 1.165
14:38 1020 30.12 849 25.07 29.2 84.6 31 10.6 51.2 29.67 1.168
14:39 1020 30.12 849 25.07 29.4 84.9 30 10.3 50.6 29.79 1.173
14:40 1020 30.12 849 25.07 29.4 84.9 29 9.7 49.5 29.82 1.174
14:41 1020 30.12 849 25.07 29.4 84.9 28 9.4 48.9 29.86 1.176
14:42 1020 30.12 849 25.07 29.5 85.1 27 8.8 47.9 29.95 1.179
14:43 1020 30.12 849 25.07 29.6 85.2 31 11 51.8 30.03 1.182
14:44 1020 30.12 849 25.07 29.6 85.3 26 8.2 46.7 30.05 1.183
14:45 1020 30.12 849 25.07 29.4 85 30 10.3 50.5 29.84 1.175
14:46 1020 30.12 849 25.07 29.3 84.7 29 9.6 49.2 29.81 1.174
14:47 1020 30.12 849 25.07 29.2 84.6 28 9 48.3 29.69 1.169
14:48 1020 30.12 849 25.07 29.1 84.4 26 8 46.4 29.58 1.165
14:49 1020 30.12 849 25.07 29 84.2 26 8.1 46.5 29.46 1.16
14:50 1020 30.12 849 25.07 28.9 84.1 29 9.5 49.1 29.42 1.158
14:51 1020 30.12 849 25.07 28.9 84 28 8.7 47.6 29.45 1.159
14:52 1020 30.12 849 25.07 29 84.1 30 9.7 49.5 29.48 1.161
14:53 1020 30.12 849 25.07 29 84.2 27 8.2 46.8 29.58 1.165
14:54 1020 30.12 849 25.07 29 84.2 29 9.3 48.8 29.6 1.165
14:55 1020 30.12 849 25.07 29 84.2 31 10.5 50.9 29.59 1.165
14:56 1019 30.09 849 25.07 28.9 84 27 8.1 46.6 29.54 1.163
14:57 1019 30.09 849 25.07 28.8 83.8 29 9.2 48.6 29.39 1.157
14:58 1019 30.09 849 25.07 28.7 83.6 27 8.3 47 29.32 1.154
14:59 1019 30.09 849 25.07 28.6 83.5 28 8.4 47.1 29.19 1.149
15:00 1019 30.09 849 25.07 28.4 83.2 30 9.5 49.1 29.02 1.143
15:01 1019 30.09 848 25.04 28.3 83 30 9.5 49 28.89 1.137
15:02 1019 30.09 849 25.07 28.2 82.8 28 8.5 47.2 28.8 1.134
15:03 1019 30.09 848 25.04 28.2 82.8 30 9.5 49.1 28.71 1.13
15:04 1019 30.09 848 25.04 28.2 82.7 30 9.1 48.5 28.68 1.129
15:05 1019 30.09 848 25.04 28.1 82.6 31 9.8 49.6 28.63 1.127
15:06 1019 30.09 848 25.04 28.2 82.7 30 9.1 48.3 28.73 1.131
15:07 1019 30.09 848 25.04 28.1 82.6 32 10.2 50.4 28.67 1.129
15:08 1019 30.09 848 25.04 28.1 82.6 31 9.8 49.7 28.62 1.127
15:09 1019 30.09 848 25.04 27.9 82.3 31 9.4 49 28.46 1.12
15:10 1019 30.09 848 25.04 27.7 81.8 31 9.1 48.4 28.16 1.109
15:11 1019 30.09 848 25.04 27.5 81.5 31 9.2 48.6 28.04 1.104
15:12 1019 30.09 848 25.04 27.5 81.4 31 9.1 48.4 28 1.102
15:13 1019 30.09 848 25.04 27.3 81.1 33 9.8 49.6 27.81 1.095
15:14 1019 30.09 848 25.04 27.2 81 34 10.4 50.6 27.76 1.093
15:15 1019 30.09 848 25.04 27.2 80.9 31 8.9 48.1 27.7 1.091
15:16 1019 30.09 848 25.04 27 80.7 31 8.9 48 27.54 1.084
15:17 1019 30.09 848 25.04 26.9 80.5 32 9.1 48.3 27.41 1.079
15:18 1019 30.09 848 25.04 26.8 80.2 31 8.7 47.7 27.25 1.073
15:19 1019 30.09 848 25.04 26.6 79.9 31 8.4 47.2 27.12 1.068
15:20 1019 30.09 849 25.07 26.6 79.8 32 8.8 47.8 27.02 1.064
15:21 1019 30.09 849 25.07 26.5 79.7 33 9.3 48.7 26.96 1.061
15:22 1019 30.09 848 25.04 26.5 79.6 34 9.4 49 26.9 1.059
15:23 1019 30.09 848 25.04 26.3 79.4 31 8.1 46.7 26.72 1.052
15:24 1019 30.09 848 25.04 26.3 79.3 34 9.3 48.8 26.64 1.049
15:25 1019 30.09 849 25.07 26.2 79.2 33 8.8 47.8 26.64 1.049
15:26 1019 30.09 849 25.07 26.2 79.2 34 9.4 48.9 26.63 1.048
15:27 1019 30.09 849 25.07 26.2 79.2 31 8.2 46.7 26.65 1.049
15:28 1019 30.09 849 25.07 26.2 79.1 32 8.2 46.8 26.58 1.046
15:29 1019 30.09 849 25.07 26 78.9 33 8.9 48 26.42 1.04
15:30 1019 30.09 849 25.07 25.9 78.6 34 9 48.2 26.31 1.036
15:31 1019 30.09 849 25.07 25.7 78.2 35 9.2 48.6 26.08 1.027
15:32 1019 30.09 849 25.07 25.5 77.9 34 8.6 47.5 25.88 1.019
15:33 1019 30.09 849 25.07 25.3 77.6 33 8.1 46.5 25.72 1.013
15:34 1019 30.09 849 25.07 25.2 77.3 37 9.5 49.1 25.58 1.007
15:35 1019 30.09 849 25.07 25.1 77.1 35 8.8 47.8 25.46 1.002
15:36 1019 30.09 849 25.07 25 77 33 8 46.5 25.38 0.999
15:37 1019 30.09 849 25.07 24.9 76.9 37 9.5 49.1 25.37 0.999
15:38 1019 30.09 849 25.07 24.8 76.7 35 8.4 47.1 25.19 0.992
15:39 1019 30.09 849 25.07 24.7 76.5 36 9 48.1 25.15 0.99
15:40 1019 30.09 849 25.07 24.7 76.4 36 8.7 47.6 25.04 0.986
15:41 1019 30.09 849 25.07 24.6 76.2 37 9.2 48.5 24.9 0.98
15:42 1019 30.09 849 25.07 24.5 76 37 9.2 48.5 24.8 0.976
15:43 1019 30.09 849 25.07 24.3 75.7 36 8.6 47.5 24.7 0.972
15:44 1019 30.09 849 25.07 24.3 75.7 37 8.8 47.8 24.61 0.969
15:45 1019 30.09 849 25.07 24.2 75.5 37 8.8 47.9 24.56 0.967
15:46 1019 30.09 849 25.07 24.1 75.4 37 8.8 47.9 24.46 0.963
15:47 1019 30.09 849 25.07 24 75.2 38 9.2 48.5 24.34 0.958
15:48 1019 30.09 849 25.07 23.9 75.1 37 8.6 47.5 24.3 0.957
15:49 1019 30.09 849 25.07 23.9 75 39 9.1 48.4 24.27 0.956
15:50 1020 30.12 849 25.07 23.9 74.9 39 9.3 48.7 24.2 0.953
15:51 1020 30.12 849 25.07 23.8 74.8 39 9.3 48.7 24.19 0.952
15:52 1020 30.12 849 25.07 23.8 74.8 39 9.1 48.4 24.12 0.95
15:53 1020 30.12 849 25.07 23.7 74.7 38 8.8 47.8 24.08 0.948
15:54 1020 30.12 849 25.07 23.7 74.6 39 9.2 48.6 24.05 0.947
15:55 1020 30.12 849 25.07 23.6 74.5 38 8.6 47.5 23.97 0.944
15:56 1020 30.12 849 25.07 23.6 74.6 38 8.8 47.8 23.96 0.943
15:57 1020 30.12 849 25.07 23.6 74.5 38 8.5 47.3 23.95 0.943
15:58 1020 30.12 849 25.07 23.6 74.5 38 8.8 47.8 23.95 0.943
15:59 1020 30.12 849 25.07 23.6 74.4 40 9.3 48.7 23.92 0.942
16:00 1020 30.12 849 25.07 23.5 74.2 40 9.1 48.4 23.84 0.939
16:01 1020 30.12 850 25.1 23.5 74.2 39 8.8 47.9 23.83 0.938
16:02 1021 30.15 850 25.1 23.5 74.3 40 9.3 48.8 23.86 0.939
16:03 1021 30.15 850 25.1 23.3 74 43 10.3 50.6 23.7 0.933
16:04 1021 30.15 850 25.1 23 73.4 40 8.9 48 23.38 0.92
16:05 1021 30.15 851 25.13 22.8 73.1 39 8.3 46.9 23.19 0.913
16:06 1021 30.15 851 25.13 22.7 72.8 39 8.1 46.5 22.98 0.905
16:07 1022 30.18 851 25.13 22.4 72.4 41 8.9 48 22.76 0.896
16:08 1022 30.18 851 25.13 22 71.6 44 9.2 48.6 22.32 0.879
16:09 1022 30.18 851 25.13 21.5 70.6 46 9.4 48.9 21.84 0.86
16:10 1022 30.18 851 25.13 21 69.8 49 9.9 49.9 21.39 0.842
16:11 1022 30.18 851 25.13 20.6 69.2 50 10 49.9 21.03 0.828
16:12 1022 30.18 851 25.13 20.3 68.6 51 10 50 20.72 0.816
16:13 1022 30.18 851 25.13 20 68 53 10.3 50.6 20.4 0.803
16:14 1022 30.18 851 25.13 19.7 67.5 57 11 51.7 20.13 0.793
16:15 1022 30.18 851 25.13 19.4 66.8 62 11.9 53.5 19.74 0.777
16:16 1022 30.18 851 25.13 18.7 65.7 67 12.6 54.8 19.2 0.756
16:17 1022 30.18 851 25.13 17.8 64.1 72 12.7 54.8 18.38 0.724
16:18 1022 30.18 851 25.13 17.1 62.8 73 12.3 54.1 17.69 0.696
16:19 1022 30.18 852 25.16 16.7 62 76 12.6 54.6 17.24 0.679
16:20 1022 30.18 852 25.16 16.4 61.5 75 12.1 53.7 16.86 0.664
16:21 1022 30.18 852 25.16 16.3 61.3 75 11.9 53.4 16.72 0.658
16:22 1023 30.21 852 25.16 16.3 61.3 74 11.7 53.1 16.68 0.657
16:23 1023 30.21 852 25.16 16.2 61.2 74 11.6 52.9 16.53 0.651
16:24 1023 30.21 852 25.16 16.1 61 75 11.7 53.1 16.42 0.646
16:25 1023 30.21 852 25.16 16 60.9 77 12.1 53.7 16.33 0.643
16:26 1023 30.21 852 25.16 15.9 60.6 77 11.9 53.5 16.15 0.636
16:27 1023 30.21 852 25.16 15.8 60.5 76 11.7 53.1 16.07 0.633
16:28 1023 30.21 852 25.16 15.8 60.5 77 11.7 53.1 16.09 0.633
16:29 1023 30.21 853 25.19 15.9 60.6 77 11.9 53.3 16.12 0.635
16:30 1024 30.24 853 25.19 15.9 60.6 77 11.9 53.4 16.16 0.636
16:31 1024 30.24 853 25.19 15.8 60.4 77 11.8 53.2 16.14 0.635
16:32 1024 30.24 853 25.19 15.8 60.4 78 11.9 53.4 16.12 0.635
16:33 1024 30.24 853 25.19 15.8 60.4 78 12 53.7 16.08 0.633
16:34 1024 30.24 853 25.19 15.9 60.5 75 11.4 52.6 16.13 0.635
16:35 1024 30.24 853 25.19 16 60.9 77 12 53.5 16.31 0.642
16:36 1024 30.24 854 25.22 16.1 60.9 77 12 53.6 16.34 0.643
16:37 1025 30.27 854 25.22 16 60.8 75 11.7 53 16.27 0.641
16:38 1025 30.27 854 25.22 16 60.8 75 11.7 53 16.29 0.641
16:39 1025 30.27 854 25.22 16.1 60.9 77 12 53.6 16.3 0.642
16:40 1025 30.27 854 25.22 16 60.9 75 11.7 53.1 16.29 0.641
16:41 1025 30.27 855 25.25 16 60.8 80 12.5 54.5 16.36 0.644
16:42 1026 30.3 855 25.25 16.1 60.9 76 12 53.5 16.39 0.645
16:43 1026 30.3 855 25.25 16.1 61 77 12.1 53.8 16.56 0.652
16:44 1026 30.3 855 25.25 16.2 61.1 75 11.9 53.4 16.54 0.651
16:45 1026 30.3 855 25.25 16.2 61.2 75 11.9 53.4 16.49 0.649
16:46 1026 30.3 855 25.25 16.2 61.2 74 11.7 53 16.5 0.65
16:47 1026 30.3 855 25.25 16.1 61 76 12 53.5 16.43 0.647
16:48 1026 30.3 855 25.25 16 60.9 76 11.8 53.2 16.36 0.644
16:49 1026 30.3 855 25.25 16 60.7 76 11.7 53.1 16.28 0.641
16:50 1026 30.3 855 25.25 15.9 60.5 77 11.8 53.3 16.16 0.636
16:51 1026 30.3 855 25.25 15.8 60.4 77 11.7 53.1 16.11 0.634
16:52 1025 30.27 854 25.22 15.7 60.3 79 12.2 53.9 16.09 0.633
16:53 1025 30.27 854 25.22 15.6 60.1 81 12.3 54.2 15.94 0.628
16:54 1025 30.27 854 25.22 15.4 59.8 81 12.2 54 15.81 0.622
16:55 1025 30.27 854 25.22 15.3 59.6 80 12 53.6 15.77 0.621
16:56 1025 30.27 854 25.22 15.3 59.6 83 12.4 54.3 15.77 0.621
16:57 1025 30.27 854 25.22 15.2 59.4 85 12.8 55.1 15.64 0.616
16:58 1025 30.27 854 25.22 15.1 59.1 86 12.8 55 15.53 0.611
16:59 1025 30.27 854 25.22 15 58.9 85 12.6 54.6 15.44 0.608
17:00 1025 30.27 854 25.22 15 59 86 12.8 55 15.45 0.608
17:01 1025 30.27 854 25.22 15 59 86 12.8 55 15.46 0.609
17:02 1025 30.27 854 25.22 15 59.1 87 12.9 55.2 15.46 0.609
17:03 1025 30.27 854 25.22 15 59 84 12.4 54.3 15.45 0.608
17:04 1025 30.27 854 25.22 15.1 59.3 82 12.1 53.8 15.53 0.611
17:05 1025 30.27 854 25.22 15.3 59.6 82 12.2 54 15.67 0.617
17:06 1025 30.27 854 25.22 15.5 59.8 82 12.4 54.4 15.77 0.621
17:07 1025 30.27 854 25.22 15.5 59.9 83 12.6 54.6 15.81 0.622
17:08 1025 30.27 854 25.22 15.5 59.9 83 12.7 54.9 15.77 0.621
17:09 1025 30.27 854 25.22 15.4 59.8 85 13 55.4 15.75 0.62
17:10 1025 30.27 855 25.25 15.3 59.6 88 13.3 55.9 15.72 0.619
17:11 1026 30.3 855 25.25 15.2 59.3 88 13.2 55.7 15.59 0.614
17:12 1026 30.3 855 25.25 15.1 59.1 87 12.9 55.2 15.52 0.611
17:13 1026 30.3 855 25.25 14.9 58.9 88 12.9 55.2 15.36 0.605
17:14 1026 30.3 855 25.25 14.9 58.8 88 12.9 55.2 15.3 0.602
17:15 1026 30.3 855 25.25 14.8 58.7 88 12.8 55.1 15.24 0.6
17:16 1026 30.3 855 25.25 14.8 58.6 88 12.8 55.1 15.16 0.597
17:17 1026 30.3 855 25.25 14.8 58.6 88 12.8 55.1 15.15 0.596
17:18 1026 30.3 855 25.25 14.8 58.6 88 12.8 55 15.14 0.596
17:19 1026 30.3 855 25.25 14.8 58.7 87 12.7 54.8 15.16 0.597
17:20 1026 30.3 855 25.25 14.9 58.7 88 12.8 55.1 15.23 0.6
17:21 1026 30.3 855 25.25 14.8 58.7 89 13 55.3 15.2 0.598
17:22 1026 30.3 855 25.25 14.8 58.6 87 12.7 54.8 15.17 0.597
17:23 1026 30.3 855 25.25 14.8 58.7 87 12.7 54.8 15.21 0.599
17:24 1026 30.3 855 25.25 14.9 58.8 86 12.7 54.8 15.25 0.6
17:25 1025 30.27 855 25.25 15 58.9 87 12.8 55 15.29 0.602
17:26 1025 30.27 854 25.22 15 59 86 12.7 54.9 15.31 0.603
17:27 1025 30.27 854 25.22 15.1 59.1 87 13 55.3 15.35 0.604
17:28 1025 30.27 854 25.22 15 59.1 86 12.7 54.8 15.34 0.604
17:29 1025 30.27 854 25.22 15.1 59.2 84 12.5 54.4 15.34 0.604
17:30 1025 30.27 854 25.22 15.2 59.4 82 12.3 54.1 15.41 0.607
17:31 1025 30.27 854 25.22 15.4 59.7 82 12.3 54.1 15.53 0.611
17:32 1025 30.27 854 25.22 15.4 59.8 83 12.6 54.7 15.57 0.613
17:33 1025 30.27 854 25.22 15.4 59.6 83 12.5 54.5 15.55 0.612
17:34 1025 30.27 854 25.22 15.3 59.5 84 12.7 54.8 15.48 0.609
17:35 1025 30.27 854 25.22 15.2 59.3 85 12.7 54.9 15.45 0.608
17:36 1025 30.27 854 25.22 15.1 59.2 86 12.8 55 15.44 0.608
17:37 1025 30.27 855 25.25 15.1 59.1 85 12.6 54.7 15.38 0.606
17:38 1025 30.27 854 25.22 15 58.9 86 12.6 54.7 15.31 0.603
17:39 1025 30.27 854 25.22 15 58.9 85 12.5 54.5 15.26 0.601
17:40 1025 30.27 854 25.22 14.9 58.9 84 12.4 54.2 15.22 0.599
17:41 1025 30.27 854 25.22 14.9 58.8 84 12.3 54.1 15.2 0.598
17:42 1025 30.27 854 25.22 14.9 58.8 84 12.2 54 15.19 0.598
17:43 1025 30.27 854 25.22 14.9 58.8 84 12.2 54 15.17 0.597
17:44 1025 30.27 854 25.22 14.9 58.8 85 12.3 54.2 15.14 0.596
17:45 1025 30.27 854 25.22 14.9 58.8 83 12.1 53.7 15.14 0.596
17:46 1024 30.24 854 25.22 14.9 58.9 84 12.2 54 15.15 0.596
17:47 1024 30.24 853 25.19 14.9 58.9 83 12.1 53.7 15.13 0.596
17:48 1024 30.24 853 25.19 14.9 58.8 83 12.1 53.8 15.17 0.597
17:49 1024 30.24 853 25.19 14.9 58.8 85 12.4 54.4 15.16 0.597
17:50 1024 30.24 853 25.19 14.8 58.6 86 12.5 54.5 15.1 0.594
17:51 1024 30.24 853 25.19 14.7 58.4 85 12.3 54.1 15.01 0.591
17:52 1023 30.21 853 25.19 14.8 58.6 84 12.1 53.8 15.01 0.591
17:53 1023 30.21 852 25.16 14.9 58.8 82 11.9 53.4 15.1 0.594
17:54 1023 30.21 852 25.16 15.1 59.2 79 11.5 52.6 15.17 0.597
17:55 1023 30.21 852 25.16 15.3 59.6 78 11.4 52.6 15.35 0.604
17:56 1022 30.18 852 25.16 15.5 59.9 78 11.7 53.1 15.51 0.611
17:57 1022 30.18 852 25.16 15.5 59.8 78 11.7 53.1 15.52 0.611
17:58 1022 30.18 852 25.16 15.4 59.6 80 11.9 53.4 15.5 0.61
17:59 1022 30.18 852 25.16 15.3 59.5 80 11.9 53.5 15.46 0.609
18:00 1023 30.21 852 25.16 15.2 59.3 81 12 53.5 15.41 0.607
18:01 1023 30.21 852 25.16 15.1 59.2 80 11.8 53.2 15.41 0.607
18:02 1023 30.21 852 25.16 15.1 59.2 82 12.1 53.8 15.37 0.605
18:03 1022 30.18 852 25.16 15 59 82 11.9 53.4 15.31 0.603
18:04 1022 30.18 852 25.16 15 58.9 83 12.1 53.7 15.25 0.6
18:05 1022 30.18 851 25.13 14.9 58.8 82 11.8 53.2 15.22 0.599
18:06 1022 30.18 852 25.16 15 59 80 11.6 52.9 15.25 0.6
18:07 1022 30.18 852 25.16 15.1 59.1 80 11.6 52.9 15.33 0.604
18:08 1022 30.18 852 25.16 15.2 59.4 78 11.4 52.5 15.42 0.607
18:09 1022 30.18 852 25.16 15.3 59.6 78 11.6 52.9 15.55 0.612
18:10 1022 30.18 852 25.16 15.4 59.8 76 11.3 52.3 15.65 0.616
18:11 1022 30.18 852 25.16 15.6 60.1 75 11.2 52.2 15.8 0.622
18:12 1023 30.21 852 25.16 15.8 60.4 74 11.1 52 15.96 0.628
18:13 1023 30.21 852 25.16 15.8 60.5 75 11.5 52.6 16.05 0.632
18:14 1023 30.21 852 25.16 15.8 60.5 75 11.5 52.7 16.08 0.633
18:15 1023 30.21 852 25.16 15.9 60.6 76 11.7 53.1 16.17 0.637
18:16 1023 30.21 852 25.16 15.9 60.6 78 12.1 53.9 16.17 0.637
18:17 1023 30.21 852 25.16 15.9 60.5 79 12.3 54.2 16.15 0.636
18:18 1023 30.21 852 25.16 15.7 60.3 79 12.1 53.8 16.09 0.633
18:19 1023 30.21 852 25.16 15.7 60.2 78 12 53.5 16.01 0.63
18:20 1023 30.21 853 25.19 15.7 60.3 78 12 53.5 16.08 0.633
18:21 1023 30.21 853 25.19 15.8 60.4 78 12 53.5 16.06 0.632
18:22 1023 30.21 853 25.19 15.8 60.4 78 12 53.6 16.14 0.635
18:23 1023 30.21 853 25.19 15.8 60.4 77 11.9 53.4 16.15 0.636
18:24 1023 30.21 853 25.19 15.8 60.5 79 12.2 54 16.19 0.637
18:25 1023 30.21 853 25.19 15.8 60.5 77 11.8 53.2 16.17 0.637
18:26 1023 30.21 853 25.19 15.9 60.6 77 11.9 53.4 16.22 0.639
18:27 1023 30.21 853 25.19 15.9 60.7 74 11.3 52.4 16.3 0.642
18:28 1024 30.24 853 25.19 16.1 61 72 11.2 52.2 16.44 0.647
18:29 1024 30.24 853 25.19 16.3 61.3 70 10.9 51.6 16.64 0.655
18:30 1024 30.24 853 25.19 16.5 61.7 71 11.3 52.4 16.86 0.664
18:31 1024 30.24 853 25.19 16.7 62.1 70 11.3 52.3 17.03 0.67
18:32 1024 30.24 853 25.19 16.8 62.3 71 11.5 52.8 17.12 0.674
18:33 1024 30.24 853 25.19 16.9 62.4 70 11.5 52.8 17.19 0.677
18:34 1024 30.24 853 25.19 17 62.5 71 11.6 53 17.29 0.681
18:35 1024 30.24 853 25.19 17 62.6 69 11.3 52.3 17.32 0.682
18:36 1024 30.24 853 25.19 17 62.7 69 11.5 52.7 17.34 0.683
18:37 1024 30.24 853 25.19 17 62.6 71 11.8 53.3 17.35 0.683
18:38 1024 30.24 853 25.19 17 62.6 71 11.8 53.2 17.33 0.682
18:39 1024 30.24 853 25.19 17 62.5 74 12.2 54 17.29 0.681
18:40 1024 30.24 853 25.19 16.9 62.5 72 11.8 53.3 17.27 0.68
18:41 1024 30.24 853 25.19 16.9 62.5 72 11.9 53.4 17.26 0.68
18:42 1024 30.24 853 25.19 17 62.5 73 12.1 53.8 17.31 0.681
18:43 1024 30.24 853 25.19 17 62.6 74 12.5 54.5 17.36 0.683
18:44 1024 30.24 853 25.19 17.2 62.9 73 12.3 54.2 17.56 0.691
18:45 1024 30.24 853 25.19 17.4 63.2 74 12.7 54.8 17.75 0.699
18:46 1024 30.24 853 25.19 17.5 63.5 73 12.7 54.8 17.98 0.708
18:47 1024 30.24 853 25.19 17.7 63.8 66 11.4 52.6 18.08 0.712
18:48 1024 30.24 853 25.19 17.8 64.1 67 11.7 53 18.21 0.717
18:49 1024 30.24 853 25.19 17.9 64.3 65 11.3 52.4 18.3 0.72
18:50 1024 30.24 853 25.19 18 64.4 62 10.7 51.2 18.33 0.722
18:51 1024 30.24 853 25.19 18 64.3 65 11.3 52.3 18.28 0.72
18:52 1024 30.24 853 25.19 17.9 64.2 65 11.4 52.5 18.21 0.717
18:53 1024 30.24 853 25.19 17.8 64 64 11 51.8 18.09 0.712
18:54 1024 30.24 853 25.19 17.6 63.6 67 11.4 52.5 17.91 0.705
18:55 1024 30.24 853 25.19 17.3 63.2 68 11.5 52.8 17.66 0.695
18:56 1024 30.24 853 25.19 17.1 62.7 70 11.7 53 17.47 0.688
18:57 1024 30.24 853 25.19 16.9 62.4 71 11.6 52.8 17.23 0.678
18:58 1023 30.21 853 25.19 16.8 62.2 71 11.6 52.9 17.12 0.674
18:59 1024 30.24 853 25.19 16.7 62.1 71 11.5 52.8 17.05 0.671
19:00 1023 30.21 853 25.19 16.7 62 72 11.6 52.8 16.98 0.669
19:01 1023 30.21 853 25.19 16.6 61.8 73 11.7 53.1 16.95 0.667
19:02 1023 30.21 852 25.16 16.5 61.8 73 11.6 52.9 16.89 0.665
19:03 1023 30.21 852 25.16 16.4 61.6 73 11.6 52.9 16.85 0.663
19:04 1023 30.21 852 25.16 16.4 61.5 75 12 53.6 16.74 0.659
19:05 1023 30.21 852 25.16 16.3 61.4 74 11.7 53.1 16.66 0.656
19:06 1023 30.21 853 25.19 16.2 61.2 75 11.8 53.2 16.61 0.654
19:07 1023 30.21 853 25.19 16.2 61.1 75 11.9 53.3 16.55 0.652
19:08 1023 30.21 853 25.19 16.1 61.1 75 11.8 53.3 16.5 0.65
19:09 1023 30.21 853 25.19 16.1 61 75 11.7 53 16.52 0.65
19:10 1023 30.21 853 25.19 16.1 61 76 11.9 53.4 16.48 0.649
19:11 1023 30.21 853 25.19 16.1 61 75 11.8 53.2 16.47 0.648
19:12 1023 30.21 853 25.19 16.1 61 76 11.8 53.3 16.47 0.648
19:13 1023 30.21 853 25.19 16.1 61 76 12 53.5 16.43 0.647
19:14 1023 30.21 853 25.19 16.1 60.9 77 12 53.7 16.42 0.646
19:15 1024 30.24 853 25.19 16 60.8 77 12 53.7 16.37 0.644
19:16 1023 30.21 853 25.19 16 60.8 77 11.9 53.5 16.38 0.645
19:17 1023 30.21 853 25.19 16 60.8 76 11.9 53.4 16.35 0.644
19:18 1023 30.21 853 25.19 16 60.8 76 11.9 53.4 16.43 0.647
19:19 1023 30.21 853 25.19 16 60.9 76 11.8 53.2 16.43 0.647
19:20 1023 30.21 853 25.19 16.1 61 75 11.8 53.3 16.48 0.649
19:21 1023 30.21 853 25.19 16.2 61.1 76 12 53.6 16.53 0.651
19:22 1024 30.24 853 25.19 16.2 61.1 77 12.1 53.8 16.53 0.651
19:23 1023 30.21 853 25.19 16.2 61.2 76 12 53.6 16.6 0.654
19:24 1023 30.21 853 25.19 16.3 61.3 75 12 53.6 16.67 0.656
19:25 1023 30.21 853 25.19 16.4 61.5 74 11.8 53.3 16.76 0.66
19:26 1023 30.21 853 25.19 16.5 61.7 74 11.8 53.3 16.9 0.665
19:27 1023 30.21 853 25.19 16.6 61.9 73 11.8 53.3 16.98 0.669
19:28 1023 30.21 852 25.16 16.7 62 72 11.7 53.1 17.04 0.671
19:29 1023 30.21 852 25.16 16.7 62.1 74 12.1 53.7 17.09 0.673
19:30 1023 30.21 853 25.19 16.9 62.3 72 11.8 53.2 17.19 0.677
19:31 1023 30.21 852 25.16 16.9 62.3 72 11.8 53.2 17.21 0.678
19:32 1023 30.21 853 25.19 16.9 62.3 74 12.2 54 17.22 0.678
19:33 1023 30.21 853 25.19 16.9 62.3 73 12.1 53.7 17.2 0.677
19:34 1023 30.21 853 25.19 16.8 62.2 72 11.7 53.1 17.17 0.676
19:35 1023 30.21 853 25.19 16.7 62.1 74 12.1 53.7 17.06 0.672
19:36 1023 30.21 853 25.19 16.6 61.9 73 11.8 53.2 16.94 0.667
19:37 1023 30.21 853 25.19 16.5 61.8 74 11.9 53.4 16.9 0.665
19:38 1024 30.24 853 25.19 16.6 61.8 74 11.9 53.4 16.9 0.665
19:39 1024 30.24 853 25.19 16.5 61.7 73 11.7 53.1 16.86 0.664
19:40 1024 30.24 853 25.19 16.5 61.7 73 11.7 53.1 16.85 0.663
19:41 1024 30.24 853 25.19 16.5 61.7 73 11.8 53.2 16.86 0.664
19:42 1024 30.24 853 25.19 16.5 61.7 73 11.6 52.9 16.85 0.663
19:43 1024 30.24 853 25.19 16.5 61.7 73 11.7 53.1 16.84 0.663
19:44 1024 30.24 853 25.19 16.5 61.7 73 11.7 53.1 16.85 0.663
19:45 1024 30.24 853 25.19 16.5 61.7 72 11.5 52.6 16.83 0.663
19:46 1024 30.24 853 25.19 16.5 61.7 72 11.5 52.7 16.88 0.665
19:47 1024 30.24 853 25.19 16.5 61.8 72 11.5 52.8 16.88 0.665
19:48 1024 30.24 853 25.19 16.5 61.7 72 11.5 52.7 16.9 0.665
19:49 1023 30.21 853 25.19 16.5 61.7 72 11.4 52.6 16.88 0.665
19:50 1023 30.21 853 25.19 16.5 61.8 73 11.7 53 16.92 0.666
19:51 1024 30.24 853 25.19 16.6 61.8 72 11.6 52.9 16.96 0.668
19:52 1023 30.21 853 25.19 16.7 62 69 11.1 52 16.98 0.669
19:53 1023 30.21 853 25.19 16.8 62.2 69 11.1 52.1 17.13 0.674
19:54 1023 30.21 853 25.19 16.8 62.3 70 11.4 52.5 17.18 0.676
19:55 1023 30.21 853 25.19 16.9 62.3 69 11.3 52.3 17.18 0.676
19:56 1023 30.21 853 25.19 16.9 62.5 69 11.2 52.1 17.27 0.68
19:57 1023 30.21 853 25.19 17 62.6 69 11.3 52.4 17.36 0.683
19:58 1023 30.21 853 25.19 17 62.7 69 11.3 52.3 17.37 0.684
19:59 1023 30.21 853 25.19 17.1 62.7 69 11.3 52.4 17.41 0.685
20:00 1023 30.21 853 25.19 17.1 62.7 69 11.3 52.4 17.42 0.686
20:01 1023 30.21 853 25.19 17.1 62.8 68 11.3 52.4 17.43 0.686
20:02 1023 30.21 853 25.19 17.1 62.8 68 11.3 52.4 17.45 0.687
20:03 1023 30.21 853 25.19 17.1 62.7 67 11.1 51.9 17.43 0.686
20:04 1023 30.21 853 25.19 17.1 62.7 69 11.3 52.4 17.44 0.687
20:05 1023 30.21 853 25.19 17.1 62.7 69 11.4 52.6 17.46 0.687
20:06 1023 30.21 853 25.19 17.1 62.7 69 11.4 52.5 17.41 0.685
20:07 1023 30.21 853 25.19 17 62.7 70 11.5 52.7 17.38 0.684
20:08 1023 30.21 853 25.19 17 62.5 71 11.7 53.1 17.31 0.681
20:09 1023 30.21 853 25.19 16.9 62.4 70 11.4 52.6 17.26 0.68
20:10 1023 30.21 853 25.19 16.9 62.4 71 11.6 53 17.23 0.678
20:11 1023 30.21 853 25.19 16.9 62.3 70 11.3 52.4 17.22 0.678
20:12 1023 30.21 853 25.19 16.9 62.3 69 11.3 52.3 17.2 0.677
20:13 1023 30.21 853 25.19 16.9 62.4 70 11.5 52.7 17.2 0.677
20:14 1023 30.21 853 25.19 16.8 62.3 70 11.4 52.6 17.2 0.677
20:15 1023 30.21 853 25.19 16.8 62.3 70 11.5 52.6 17.16 0.676
20:16 1023 30.21 853 25.19 16.7 62.1 71 11.5 52.8 17.09 0.673
20:17 1023 30.21 853 25.19 16.7 62 71 11.5 52.7 17.04 0.671
20:18 1023 30.21 853 25.19 16.6 61.9 71 11.4 52.5 16.95 0.667
20:19 1023 30.21 853 25.19 16.6 61.8 72 11.5 52.6 16.91 0.666
20:20 1023 30.21 852 25.16 16.5 61.7 71 11.4 52.5 16.86 0.664
20:21 1023 30.21 852 25.16 16.5 61.6 71 11.3 52.4 16.81 0.662
20:22 1023 30.21 852 25.16 16.5 61.6 72 11.4 52.6 16.78 0.661
20:23 1023 30.21 852 25.16 16.4 61.5 73 11.5 52.7 16.75 0.659
20:24 1023 30.21 852 25.16 16.3 61.4 73 11.5 52.7 16.7 0.657
20:25 1023 30.21 852 25.16 16.3 61.3 72 11.3 52.4 16.64 0.655
20:26 1023 30.21 852 25.16 16.3 61.3 73 11.4 52.5 16.61 0.654
20:27 1023 30.21 852 25.16 16.3 61.3 72 11.3 52.3 16.64 0.655
20:28 1023 30.21 852 25.16 16.3 61.3 72 11.2 52.2 16.65 0.656
20:29 1023 30.21 852 25.16 16.3 61.4 72 11.3 52.3 16.69 0.657
20:30 1023 30.21 852 25.16 16.3 61.4 73 11.4 52.6 16.68 0.657
20:31 1023 30.21 852 25.16 16.3 61.3 73 11.4 52.5 16.62 0.654
20:32 1023 30.21 852 25.16 16.2 61.2 71 11.1 52 16.57 0.652
20:33 1023 30.21 852 25.16 16.2 61.2 72 11.3 52.3 16.59 0.653
20:34 1023 30.21 852 25.16 16.2 61.1 71 11.1 51.9 16.57 0.652
20:35 1023 30.21 852 25.16 16.3 61.3 71 11.1 52 16.6 0.654
20:36 1023 30.21 852 25.16 16.3 61.3 71 11.1 52 16.66 0.656
20:37 1023 30.21 853 25.19 16.3 61.3 72 11.2 52.1 16.63 0.655
20:38 1023 30.21 853 25.19 16.3 61.3 72 11.2 52.2 16.61 0.654
20:39 1023 30.21 853 25.19 16.3 61.3 72 11.3 52.3 16.54 0.651
20:40 1023 30.21 853 25.19 16.2 61.1 72 11.1 52 16.52 0.65
20:41 1023 30.21 853 25.19 16.2 61.1 71 11 51.9 16.58 0.653
20:42 1023 30.21 853 25.19 16.2 61.1 72 11.2 52.1 16.53 0.651
20:43 1023 30.21 853 25.19 16.1 61 72 11.1 52 16.49 0.649
20:44 1023 30.21 853 25.19 16.2 61.1 72 11.1 51.9 16.47 0.648
20:45 1023 30.21 853 25.19 16.2 61.1 71 10.9 51.6 16.53 0.651
20:46 1023 30.21 853 25.19 16.2 61.2 70 10.8 51.4 16.6 0.654
20:47 1023 30.21 852 25.16 16.3 61.3 70 10.8 51.5 16.65 0.656
20:48 1023 30.21 853 25.19 16.3 61.3 70 10.9 51.7 16.68 0.657
20:49 1023 30.21 853 25.19 16.3 61.3 70 10.9 51.6 16.62 0.654
20:50 1023 30.21 853 25.19 16.3 61.3 71 11 51.7 16.62 0.654
20:51 1023 30.21 853 25.19 16.2 61.2 70 10.9 51.6 16.58 0.653
20:52 1023 30.21 853 25.19 16.2 61.2 71 11 51.7 16.59 0.653
20:53 1023 30.21 853 25.19 16.2 61.2 71 10.9 51.6 16.56 0.652
20:54 1023 30.21 853 25.19 16.2 61.2 71 10.9 51.7 16.56 0.652
20:55 1023 30.21 853 25.19 16.2 61.1 71 10.9 51.6 16.53 0.651
20:56 1023 30.21 853 25.19 16.2 61.1 70 10.8 51.5 16.53 0.651
20:57 1023 30.21 853 25.19 16.2 61.1 71 10.9 51.7 16.53 0.651
20:58 1023 30.21 853 25.19 16.1 61 70 10.7 51.3 16.46 0.648
20:59 1023 30.21 853 25.19 16.2 61.1 70 10.8 51.4 16.5 0.65
21:00 1023 30.21 853 25.19 16.2 61.1 70 10.6 51.2 16.52 0.65
21:01 1024 30.24 853 25.19 16.2 61.2 70 10.8 51.4 16.57 0.652
21:02 1024 30.24 853 25.19 16.2 61.1 70 10.9 51.5 16.49 0.649
21:03 1023 30.21 853 25.19 16.2 61.1 70 10.8 51.4 16.5 0.65
21:04 1024 30.24 853 25.19 16.1 61 71 10.9 51.6 16.45 0.648
21:05 1023 30.21 853 25.19 16 60.9 70 10.7 51.3 16.39 0.645
21:06 1023 30.21 853 25.19 16 60.9 71 10.7 51.3 16.42 0.646
21:07 1023 30.21 853 25.19 16 60.9 71 10.7 51.3 16.4 0.646
21:08 1023 30.21 853 25.19 16 60.9 71 10.8 51.4 16.39 0.645
21:09 1023 30.21 852 25.16 16 60.8 71 10.8 51.4 16.37 0.644
21:10 1023 30.21 853 25.19 16 60.8 71 10.8 51.5 16.37 0.644
21:11 1023 30.21 853 25.19 16 60.7 71 10.7 51.2 16.31 0.642
21:12 1023 30.21 853 25.19 16 60.8 70 10.7 51.2 16.35 0.644
21:13 1023 30.21 852 25.16 16 60.8 69 10.5 50.9 16.38 0.645
21:14 1023 30.21 852 25.16 16.1 60.9 69 10.5 51 16.46 0.648
21:15 1023 30.21 852 25.16 16.1 61 70 10.6 51.1 16.48 0.649
21:16 1023 30.21 852 25.16 16.1 60.9 71 10.8 51.4 16.46 0.648
21:17 1023 30.21 853 25.19 16.1 60.9 71 10.8 51.4 16.37 0.644
21:18 1023 30.21 853 25.19 16 60.8 71 10.7 51.3 16.33 0.643
21:19 1023 30.21 853 25.19 15.9 60.6 71 10.7 51.3 16.27 0.641
21:20 1023 30.21 853 25.19 15.9 60.6 71 10.8 51.4 16.26 0.64
21:21 1023 30.21 853 25.19 15.8 60.5 72 10.7 51.3 16.23 0.639
21:22 1023 30.21 853 25.19 15.8 60.5 72 10.9 51.5 16.18 0.637
21:23 1023 30.21 852 25.16 15.8 60.4 72 10.7 51.3 16.11 0.634
21:24 1023 30.21 853 25.19 15.7 60.3 72 10.8 51.4 16.09 0.633
21:25 1023 30.21 852 25.16 15.7 60.3 72 10.7 51.2 16.11 0.634
21:26 1023 30.21 852 25.16 15.8 60.4 71 10.6 51.2 16.17 0.637
21:27 1023 30.21 852 25.16 15.8 60.5 71 10.7 51.3 16.19 0.637
21:28 1023 30.21 852 25.16 15.8 60.4 71 10.6 51.1 16.16 0.636
21:29 1023 30.21 852 25.16 15.8 60.4 71 10.7 51.2 16.16 0.636
21:30 1023 30.21 852 25.16 15.8 60.4 72 10.7 51.2 16.17 0.637
21:31 1023 30.21 852 25.16 15.8 60.4 72 10.8 51.4 16.14 0.635
21:32 1023 30.21 852 25.16 15.7 60.3 72 10.7 51.3 16.09 0.633
21:33 1023 30.21 852 25.16 15.7 60.3 72 10.8 51.4 16.07 0.633
21:34 1023 30.21 852 25.16 15.7 60.3 72 10.7 51.3 16.08 0.633
21:35 1023 30.21 852 25.16 15.7 60.3 72 10.7 51.3 16.1 0.634
21:36 1023 30.21 852 25.16 15.7 60.3 72 10.8 51.5 16.08 0.633
21:37 1023 30.21 852 25.16 15.7 60.2 72 10.7 51.2 16.05 0.632
21:38 1023 30.21 852 25.16 15.7 60.2 72 10.8 51.4 16.06 0.632
21:39 1023 30.21 852 25.16 15.7 60.2 72 10.8 51.4 16.06 0.632
21:40 1023 30.21 852 25.16 15.6 60.1 72 10.7 51.2 16.03 0.631
21:41 1023 30.21 852 25.16 15.6 60.2 72 10.7 51.2 16.05 0.632
21:42 1023 30.21 852 25.16 15.7 60.2 72 10.7 51.3 16.01 0.63
21:43 1023 30.21 853 25.19 15.7 60.2 72 10.7 51.2 16.04 0.631
21:44 1023 30.21 853 25.19 15.7 60.3 72 10.6 51.2 16.04 0.631
21:45 1023 30.21 852 25.16 15.7 60.3 70 10.4 50.7 16.1 0.634
21:46 1023 30.21 853 25.19 15.8 60.4 71 10.5 50.8 16.15 0.636
21:47 1023 30.21 853 25.19 15.8 60.4 71 10.6 51.1 16.14 0.635
21:48 1023 30.21 853 25.19 15.8 60.4 70 10.3 50.6 16.15 0.636
21:49 1023 30.21 853 25.19 15.8 60.5 70 10.5 50.9 16.22 0.639
21:50 1023 30.21 852 25.16 15.9 60.6 70 10.5 50.9 16.21 0.638
21:51 1023 30.21 853 25.19 15.9 60.5 71 10.7 51.2 16.22 0.639
21:52 1023 30.21 853 25.19 15.8 60.4 71 10.6 51 16.18 0.637
21:53 1023 30.21 853 25.19 15.8 60.4 70 10.4 50.8 16.15 0.636
21:54 1023 30.21 852 25.16 15.9 60.6 69 10.4 50.7 16.24 0.639
21:55 1023 30.21 852 25.16 15.9 60.7 69 10.3 50.6 16.25 0.64
21:56 1023 30.21 852 25.16 16 60.7 69 10.3 50.6 16.32 0.643
21:57 1023 30.21 852 25.16 16 60.8 69 10.3 50.6 16.36 0.644
21:58 1023 30.21 852 25.16 16 60.8 68 10.2 50.4 16.38 0.645
21:59 1023 30.21 852 25.16 16 60.9 68 10.2 50.4 16.43 0.647
22:00 1023 30.21 852 25.16 16.2 61.1 67 10.1 50.2 16.52 0.65
22:01 1023 30.21 853 25.19 16.2 61.2 67 10.2 50.4 16.62 0.654
22:02 1023 30.21 853 25.19 16.2 61.2 67 10.3 50.5 16.59 0.653
22:03 1023 30.21 853 25.19 16.2 61.2 67 10.2 50.4 16.56 0.652
22:04 1023 30.21 853 25.19 16.2 61.1 67 10.1 50.1 16.56 0.652
22:05 1023 30.21 853 25.19 16.2 61.2 67 10.1 50.2 16.58 0.653
22:06 1023 30.21 853 25.19 16.3 61.3 67 10.2 50.4 16.63 0.655
22:07 1024 30.24 853 25.19 16.3 61.3 68 10.5 50.9 16.57 0.652
22:08 1024 30.24 853 25.19 16.2 61.1 68 10.3 50.6 16.47 0.648
22:09 1023 30.21 853 25.19 16.1 61 68 10.2 50.4 16.46 0.648
22:10 1024 30.24 853 25.19 16.1 61 68 10.2 50.4 16.51 0.65
22:11 1024 30.24 853 25.19 16.1 61.1 68 10.3 50.5 16.52 0.65
22:12 1024 30.24 853 25.19 16.2 61.1 68 10.4 50.7 16.52 0.65
22:13 1024 30.24 853 25.19 16.2 61.1 68 10.3 50.5 16.55 0.652
22:14 1024 30.24 853 25.19 16.2 61.1 68 10.3 50.5 16.53 0.651
22:15 1024 30.24 853 25.19 16.2 61.1 68 10.3 50.5 16.52 0.65
22:16 1024 30.24 853 25.19 16.2 61.1 67 10 50.1 16.55 0.652
22:17 1024 30.24 853 25.19 16.3 61.3 67 10.3 50.5 16.59 0.653
22:18 1024 30.24 853 25.19 16.2 61.2 67 10.2 50.3 16.58 0.653
22:19 1024 30.24 853 25.19 16.2 61.2 68 10.4 50.7 16.54 0.651
22:20 1024 30.24 853 25.19 16.1 61 68 10.3 50.5 16.46 0.648
22:21 1023 30.21 853 25.19 16 60.9 68 10.2 50.4 16.42 0.646
22:22 1024 30.24 853 25.19 16.1 61 68 10.3 50.5 16.43 0.647
22:23 1023 30.21 853 25.19 16.1 61 68 10.2 50.4 16.45 0.648
22:24 1024 30.24 853 25.19 16.1 61 68 10.2 50.3 16.5 0.65
22:25 1024 30.24 853 25.19 16.2 61.1 68 10.2 50.4 16.5 0.65
22:26 1024 30.24 853 25.19 16.1 61.1 67 10.2 50.3 16.47 0.648
22:27 1024 30.24 853 25.19 16.1 61 68 10.3 50.5 16.47 0.648
22:28 1024 30.24 853 25.19 16.1 61 68 10.3 50.5 16.46 0.648
22:29 1024 30.24 853 25.19 16.1 61 67 10.2 50.3 16.51 0.65
22:30 1024 30.24 853 25.19 16.2 61.2 67 10.2 50.4 16.54 0.651
22:31 1024 30.24 853 25.19 16.2 61.2 67 10.2 50.4 16.58 0.653
22:32 1024 30.24 853 25.19 16.2 61.1 67 10.2 50.4 16.55 0.652
22:33 1024 30.24 853 25.19 16.2 61.1 68 10.3 50.5 16.58 0.653
22:34 1024 30.24 853 25.19 16.2 61.2 67 10.1 50.2 16.56 0.652
22:35 1024 30.24 853 25.19 16.3 61.3 67 10.2 50.4 16.65 0.656
22:36 1024 30.24 853 25.19 16.2 61.2 68 10.3 50.5 16.63 0.655
22:37 1024 30.24 853 25.19 16.3 61.3 67 10.1 50.2 16.59 0.653
22:38 1024 30.24 853 25.19 16.3 61.3 68 10.4 50.6 16.66 0.656
22:39 1024 30.24 853 25.19 16.2 61.2 68 10.3 50.6 16.58 0.653
22:40 1024 30.24 853 25.19 16.2 61.1 67 10.2 50.4 16.54 0.651
22:41 1024 30.24 853 25.19 16.2 61.2 68 10.3 50.5 16.57 0.652
22:42 1024 30.24 853 25.19 16.2 61.1 67 10.1 50.2 16.53 0.651
22:43 1024 30.24 853 25.19 16.2 61.2 68 10.3 50.5 16.58 0.653
22:44 1024 30.24 853 25.19 16.3 61.3 66 10.1 50.1 16.6 0.654
22:45 1024 30.24 853 25.19 16.3 61.4 67 10.3 50.6 16.68 0.657
22:46 1024 30.24 853 25.19 16.4 61.4 66 10.2 50.3 16.68 0.657
22:47 1024 30.24 853 25.19 16.4 61.4 66 10.1 50.2 16.74 0.659
22:48 1023 30.21 853 25.19 16.4 61.5 66 10.2 50.3 16.75 0.659
22:49 1024 30.24 853 25.19 16.4 61.5 67 10.3 50.5 16.77 0.66
22:50 1023 30.21 853 25.19 16.4 61.4 67 10.2 50.4 16.71 0.658
22:51 1023 30.21 853 25.19 16.3 61.4 66 10.1 50.2 16.71 0.658
22:52 1023 30.21 853 25.19 16.4 61.4 66 10.1 50.2 16.7 0.657
22:53 1023 30.21 853 25.19 16.4 61.5 66 10.1 50.1 16.7 0.657
22:54 1023 30.21 853 25.19 16.4 61.5 65 9.9 49.9 16.72 0.658
22:55 1023 30.21 853 25.19 16.4 61.5 66 10.1 50.2 16.8 0.661
22:56 1023 30.21 853 25.19 16.4 61.6 65 9.9 49.9 16.82 0.662
22:57 1024 30.24 853 25.19 16.5 61.7 65 9.9 49.9 16.89 0.665
22:58 1024 30.24 853 25.19 16.6 61.9 65 10 50 16.9 0.665
22:59 1024 30.24 853 25.19 16.6 61.8 65 10 50 16.93 0.667
23:00 1024 30.24 853 25.19 16.6 61.8 65 10 49.9 16.91 0.666
23:01 1024 30.24 853 25.19 16.5 61.7 66 10.1 50.2 16.8 0.661
23:02 1024 30.24 853 25.19 16.4 61.5 66 10 50 16.72 0.658
23:03 1024 30.24 853 25.19 16.3 61.4 66 10.1 50.1 16.67 0.656
23:04 1024 30.24 853 25.19 16.3 61.3 66 10.1 50.1 16.64 0.655
23:05 1024 30.24 853 25.19 16.3 61.3 66 10 50 16.62 0.654
23:06 1024 30.24 853 25.19 16.2 61.2 66 10 50 16.58 0.653
23:07 1024 30.24 853 25.19 16.2 61.1 67 10.1 50.1 16.51 0.65
23:08 1024 30.24 853 25.19 16.1 61 67 10 50.1 16.49 0.649
23:09 1024 30.24 853 25.19 16.1 61 67 10.1 50.1 16.46 0.648
23:10 1024 30.24 853 25.19 16.1 60.9 67 10.1 50.2 16.4 0.646
23:11 1024 30.24 853 25.19 16.1 60.9 67 10 50 16.4 0.646
23:12 1024 30.24 853 25.19 16 60.9 67 10 50 16.37 0.644
23:13 1024 30.24 853 25.19 16 60.9 67 9.9 49.8 16.39 0.645
23:14 1024 30.24 853 25.19 16.1 60.9 66 9.9 49.8 16.42 0.646
23:15 1024 30.24 853 25.19 16.1 60.9 66 9.8 49.6 16.41 0.646
23:16 1024 30.24 853 25.19 16.1 61 65 9.7 49.4 16.56 0.652
23:17 1024 30.24 853 25.19 16.3 61.3 65 9.8 49.6 16.66 0.656
23:18 1024 30.24 853 25.19 16.3 61.4 65 9.9 49.7 16.69 0.657
23:19 1024 30.24 853 25.19 16.4 61.4 65 9.8 49.7 16.72 0.658
23:20 1024 30.24 853 25.19 16.4 61.5 65 9.8 49.7 16.79 0.661
23:21 1024 30.24 853 25.19 16.4 61.6 65 10 49.9 16.78 0.661
23:22 1024 30.24 853 25.19 16.3 61.4 65 9.8 49.6 16.64 0.655
23:23 1024 30.24 853 25.19 16.3 61.4 65 9.8 49.6 16.71 0.658
23:24 1024 30.24 853 25.19 16.4 61.5 65 9.9 49.9 16.69 0.657
23:25 1024 30.24 853 25.19 16.3 61.3 66 10 50 16.63 0.655
23:26 1024 30.24 853 25.19 16.2 61.1 66 9.9 49.9 16.53 0.651
23:27 1024 30.24 853 25.19 16.1 61 67 10 49.9 16.49 0.649
23:28 1024 30.24 853 25.19 16.1 60.9 67 10 50 16.44 0.647
23:29 1024 30.24 853 25.19 16.1 60.9 66 9.9 49.8 16.42 0.646
23:30 1024 30.24 853 25.19 16.1 61 66 9.9 49.8 16.44 0.647
23:31 1024 30.24 853 25.19 16.1 60.9 67 10 50 16.42 0.646
23:32 1024 30.24 853 25.19 16 60.8 67 9.9 49.9 16.35 0.644
23:33 1024 30.24 853 25.19 15.9 60.6 67 9.9 49.7 16.31 0.642
23:34 1024 30.24 853 25.19 15.9 60.7 67 9.9 49.8 16.3 0.642
23:35 1024 30.24 853 25.19 15.9 60.5 68 10 50 16.25 0.64
23:36 1024 30.24 853 25.19 15.8 60.4 69 10 50.1 16.15 0.636
23:37 1024 30.24 853 25.19 15.6 60.1 69 10.1 50.1 16.03 0.631
23:38 1024 30.24 853 25.19 15.5 59.9 70 10.1 50.2 15.88 0.625
23:39 1024 30.24 853 25.19 15.4 59.8 70 10 49.9 15.8 0.622
23:40 1024 30.24 854 25.22 15.5 59.8 69 9.9 49.8 15.86 0.624
23:41 1024 30.24 854 25.22 15.5 59.9 69 9.8 49.7 15.89 0.626
23:42 1024 30.24 854 25.22 15.6 60.1 68 9.9 49.8 15.97 0.629
23:43 1024 30.24 854 25.22 15.7 60.2 68 9.9 49.9 16.02 0.631
23:44 1024 30.24 854 25.22 15.7 60.3 68 9.9 49.8 16.06 0.632
23:45 1024 30.24 854 25.22 15.7 60.3 68 9.9 49.8 16.05 0.632
23:46 1025 30.27 854 25.22 15.7 60.3 68 10 49.9 16.07 0.633
23:47 1025 30.27 854 25.22 15.7 60.3 67 9.7 49.4 16.08 0.633
23:48 1025 30.27 854 25.22 15.7 60.3 67 9.8 49.6 16.12 0.635
23:49 1025 30.27 854 25.22 15.8 60.4 68 9.9 49.7 16.13 0.635
23:50 1025 30.27 854 25.22 15.8 60.4 68 9.9 49.9 16.13 0.635
23:51 1025 30.27 854 25.22 15.7 60.3 68 10 49.9 16.04 0.631
23:52 1025 30.27 854 25.22 15.7 60.2 69 10.1 50.2 16.01 0.63
23:53 1025 30.27 854 25.22 15.6 60.1 70 10.2 50.3 15.95 0.628
23:54 1025 30.27 854 25.22 15.5 59.9 70 10.1 50.3 15.92 0.627
23:55 1025 30.27 854 25.22 15.4 59.8 70 10.1 50.2 15.81 0.622
23:56 1025 30.27 854 25.22 15.3 59.6 70 10 50 15.77 0.621
23:57 1025 30.27 854 25.22 15.3 59.5 70 9.9 49.9 15.69 0.618
23:58 1025 30.27 854 25.22 15.3 59.6 70 10 50 15.67 0.617
23:59 1025 30.27 854 25.22 15.3 59.6 70 9.9 49.9 15.69 0.618
24:00 1025 30.27 854 25.22 15.4 59.7 70 10 50 15.73 0.619